<?xml version="1.0" encoding="UTF-8" standalone="no" ?>
<gpx xmlns="http://www.topografix.com/GPX/1/1" xmlns:xsi="http://www.w3.org/2001/XMLSchema-instance" xsi:schemaLocation="http://www.topografix.com/GPX/1/1 http://www.topografix.com/GPX/1/1/gpx.xsd" version="1.1" creator="VisuGPX - https://www.visugpx.com">
  <metadata>
    <name>1 Angers à Argenton en 73 km</name>
    <desc><![CDATA[1 Angers à Argenton en 73 km]]></desc>
  </metadata>
  <trk>
    <name><![CDATA[14216132-Ddx Thouars (Angers 2022)]]></name>
    <extensions>
      <line xmlns="http://www.topografix.com/GPX/gpx_style/0/2">
        <color>0000FF</color>
        <width>4</width>
      </line>
    </extensions>
    <trkseg>
      <trkpt lat="47.47285" lon="-0.5821">
        <ele>32</ele>
        <time>2022-02-28T08:19:02Z</time>
      </trkpt>
      <trkpt lat="47.47287" lon="-0.58211">
        <ele>32</ele>
        <time>2022-02-28T08:19:02Z</time>
      </trkpt>
      <trkpt lat="47.47338" lon="-0.58031">
        <ele>30</ele>
        <time>2022-02-28T08:19:26Z</time>
      </trkpt>
      <trkpt lat="47.47342" lon="-0.57995">
        <ele>30</ele>
        <time>2022-02-28T08:19:30Z</time>
      </trkpt>
      <trkpt lat="47.47339" lon="-0.57835">
        <ele>28</ele>
        <time>2022-02-28T08:19:49Z</time>
      </trkpt>
      <trkpt lat="47.47303" lon="-0.57729">
        <ele>24</ele>
        <time>2022-02-28T08:20:04Z</time>
      </trkpt>
      <trkpt lat="47.4728" lon="-0.57669">
        <ele>22</ele>
        <time>2022-02-28T08:20:12Z</time>
      </trkpt>
      <trkpt lat="47.47189" lon="-0.57466">
        <ele>22</ele>
        <time>2022-02-28T08:20:41Z</time>
      </trkpt>
      <trkpt lat="47.47149" lon="-0.57366">
        <ele>18</ele>
        <time>2022-02-28T08:20:55Z</time>
      </trkpt>
      <trkpt lat="47.47121" lon="-0.57289">
        <ele>17</ele>
        <time>2022-02-28T08:21:06Z</time>
      </trkpt>
      <trkpt lat="47.47089" lon="-0.57178">
        <ele>19</ele>
        <time>2022-02-28T08:21:20Z</time>
      </trkpt>
      <trkpt lat="47.4706" lon="-0.57056">
        <ele>18</ele>
        <time>2022-02-28T08:21:36Z</time>
      </trkpt>
      <trkpt lat="47.47033" lon="-0.56929">
        <ele>21</ele>
        <time>2022-02-28T08:21:52Z</time>
      </trkpt>
      <trkpt lat="47.47025" lon="-0.56934">
        <ele>20</ele>
        <time>2022-02-28T08:21:53Z</time>
      </trkpt>
      <trkpt lat="47.47018" lon="-0.56931">
        <ele>20</ele>
        <time>2022-02-28T08:21:55Z</time>
      </trkpt>
      <trkpt lat="47.47012" lon="-0.56924">
        <ele>21</ele>
        <time>2022-02-28T08:21:56Z</time>
      </trkpt>
      <trkpt lat="47.4701" lon="-0.56909">
        <ele>21</ele>
        <time>2022-02-28T08:21:58Z</time>
      </trkpt>
      <trkpt lat="47.47013" lon="-0.569">
        <ele>21</ele>
        <time>2022-02-28T08:21:59Z</time>
      </trkpt>
      <trkpt lat="47.47017" lon="-0.56894">
        <ele>22</ele>
        <time>2022-02-28T08:22:00Z</time>
      </trkpt>
      <trkpt lat="47.47024" lon="-0.56891">
        <ele>22</ele>
        <time>2022-02-28T08:22:01Z</time>
      </trkpt>
      <trkpt lat="47.47031" lon="-0.56877">
        <ele>22</ele>
        <time>2022-02-28T08:22:04Z</time>
      </trkpt>
      <trkpt lat="47.47087" lon="-0.56806">
        <ele>23</ele>
        <time>2022-02-28T08:22:17Z</time>
      </trkpt>
      <trkpt lat="47.47116" lon="-0.56767">
        <ele>25</ele>
        <time>2022-02-28T08:22:24Z</time>
      </trkpt>
      <trkpt lat="47.47173" lon="-0.56699">
        <ele>26</ele>
        <time>2022-02-28T08:22:37Z</time>
      </trkpt>
      <trkpt lat="47.47177" lon="-0.56687">
        <ele>25</ele>
        <time>2022-02-28T08:22:38Z</time>
      </trkpt>
      <trkpt lat="47.47176" lon="-0.56677">
        <ele>25</ele>
        <time>2022-02-28T08:22:40Z</time>
      </trkpt>
      <trkpt lat="47.47163" lon="-0.56645">
        <ele>25</ele>
        <time>2022-02-28T08:22:44Z</time>
      </trkpt>
      <trkpt lat="47.47159" lon="-0.56627">
        <ele>24</ele>
        <time>2022-02-28T08:22:46Z</time>
      </trkpt>
      <trkpt lat="47.47141" lon="-0.5658">
        <ele>23</ele>
        <time>2022-02-28T08:22:53Z</time>
      </trkpt>
      <trkpt lat="47.47103" lon="-0.56482">
        <ele>22</ele>
        <time>2022-02-28T08:23:06Z</time>
      </trkpt>
      <trkpt lat="47.47092" lon="-0.56454">
        <ele>20</ele>
        <time>2022-02-28T08:23:10Z</time>
      </trkpt>
      <trkpt lat="47.47084" lon="-0.56451">
        <ele>20</ele>
        <time>2022-02-28T08:23:12Z</time>
      </trkpt>
      <trkpt lat="47.47011" lon="-0.56269">
        <ele>18</ele>
        <time>2022-02-28T08:23:37Z</time>
      </trkpt>
      <trkpt lat="47.47009" lon="-0.56262">
        <ele>18</ele>
        <time>2022-02-28T08:23:38Z</time>
      </trkpt>
      <trkpt lat="47.4701" lon="-0.56253">
        <ele>19</ele>
        <time>2022-02-28T08:23:39Z</time>
      </trkpt>
      <trkpt lat="47.46999" lon="-0.56231">
        <ele>21</ele>
        <time>2022-02-28T08:23:42Z</time>
      </trkpt>
      <trkpt lat="47.46976" lon="-0.56176">
        <ele>29</ele>
        <time>2022-02-28T08:23:50Z</time>
      </trkpt>
      <trkpt lat="47.46969" lon="-0.56181">
        <ele>29</ele>
        <time>2022-02-28T08:23:52Z</time>
      </trkpt>
      <trkpt lat="47.46966" lon="-0.56185">
        <ele>29</ele>
        <time>2022-02-28T08:23:52Z</time>
      </trkpt>
      <trkpt lat="47.46935" lon="-0.56263">
        <ele>28</ele>
        <time>2022-02-28T08:24:03Z</time>
      </trkpt>
      <trkpt lat="47.46923" lon="-0.56287">
        <ele>28</ele>
        <time>2022-02-28T08:24:07Z</time>
      </trkpt>
      <trkpt lat="47.46919" lon="-0.56298">
        <ele>28</ele>
        <time>2022-02-28T08:24:08Z</time>
      </trkpt>
      <trkpt lat="47.46907" lon="-0.56339">
        <ele>27</ele>
        <time>2022-02-28T08:24:14Z</time>
      </trkpt>
      <trkpt lat="47.46901" lon="-0.56378">
        <ele>23</ele>
        <time>2022-02-28T08:24:19Z</time>
      </trkpt>
      <trkpt lat="47.46893" lon="-0.56404">
        <ele>20</ele>
        <time>2022-02-28T08:24:22Z</time>
      </trkpt>
      <trkpt lat="47.46888" lon="-0.56414">
        <ele>20</ele>
        <time>2022-02-28T08:24:23Z</time>
      </trkpt>
      <trkpt lat="47.46874" lon="-0.56426">
        <ele>21</ele>
        <time>2022-02-28T08:24:26Z</time>
      </trkpt>
      <trkpt lat="47.46872" lon="-0.56436">
        <ele>22</ele>
        <time>2022-02-28T08:24:28Z</time>
      </trkpt>
      <trkpt lat="47.46859" lon="-0.56448">
        <ele>23</ele>
        <time>2022-02-28T08:24:30Z</time>
      </trkpt>
      <trkpt lat="47.46762" lon="-0.56521">
        <ele>23</ele>
        <time>2022-02-28T08:24:50Z</time>
      </trkpt>
      <trkpt lat="47.46738" lon="-0.56535">
        <ele>23</ele>
        <time>2022-02-28T08:24:54Z</time>
      </trkpt>
      <trkpt lat="47.46724" lon="-0.56541">
        <ele>23</ele>
        <time>2022-02-28T08:24:57Z</time>
      </trkpt>
      <trkpt lat="47.46497" lon="-0.56572">
        <ele>23</ele>
        <time>2022-02-28T08:25:37Z</time>
      </trkpt>
      <trkpt lat="47.46496" lon="-0.56584">
        <ele>23</ele>
        <time>2022-02-28T08:25:39Z</time>
      </trkpt>
      <trkpt lat="47.4649" lon="-0.56593">
        <ele>22</ele>
        <time>2022-02-28T08:25:40Z</time>
      </trkpt>
      <trkpt lat="47.46485" lon="-0.56595">
        <ele>22</ele>
        <time>2022-02-28T08:25:41Z</time>
      </trkpt>
      <trkpt lat="47.46477" lon="-0.56593">
        <ele>22</ele>
        <time>2022-02-28T08:25:43Z</time>
      </trkpt>
      <trkpt lat="47.46474" lon="-0.5659">
        <ele>22</ele>
        <time>2022-02-28T08:25:43Z</time>
      </trkpt>
      <trkpt lat="47.46469" lon="-0.56579">
        <ele>23</ele>
        <time>2022-02-28T08:25:45Z</time>
      </trkpt>
      <trkpt lat="47.46245" lon="-0.56649">
        <ele>22</ele>
        <time>2022-02-28T08:26:26Z</time>
      </trkpt>
      <trkpt lat="47.46244" lon="-0.56656">
        <ele>22</ele>
        <time>2022-02-28T08:26:27Z</time>
      </trkpt>
      <trkpt lat="47.4624" lon="-0.56661">
        <ele>21</ele>
        <time>2022-02-28T08:26:28Z</time>
      </trkpt>
      <trkpt lat="47.46234" lon="-0.56661">
        <ele>21</ele>
        <time>2022-02-28T08:26:29Z</time>
      </trkpt>
      <trkpt lat="47.4623" lon="-0.56657">
        <ele>22</ele>
        <time>2022-02-28T08:26:29Z</time>
      </trkpt>
      <trkpt lat="47.46145" lon="-0.5673">
        <ele>19</ele>
        <time>2022-02-28T08:26:47Z</time>
      </trkpt>
      <trkpt lat="47.45855" lon="-0.56934">
        <ele>27</ele>
        <time>2022-02-28T08:27:44Z</time>
      </trkpt>
      <trkpt lat="47.4579" lon="-0.56984">
        <ele>27</ele>
        <time>2022-02-28T08:27:57Z</time>
      </trkpt>
      <trkpt lat="47.45716" lon="-0.57052">
        <ele>25</ele>
        <time>2022-02-28T08:28:13Z</time>
      </trkpt>
      <trkpt lat="47.4571" lon="-0.57071">
        <ele>24</ele>
        <time>2022-02-28T08:28:15Z</time>
      </trkpt>
      <trkpt lat="47.45704" lon="-0.57083">
        <ele>24</ele>
        <time>2022-02-28T08:28:17Z</time>
      </trkpt>
      <trkpt lat="47.45703" lon="-0.57091">
        <ele>24</ele>
        <time>2022-02-28T08:28:18Z</time>
      </trkpt>
      <trkpt lat="47.45698" lon="-0.57097">
        <ele>24</ele>
        <time>2022-02-28T08:28:19Z</time>
      </trkpt>
      <trkpt lat="47.45692" lon="-0.57096">
        <ele>24</ele>
        <time>2022-02-28T08:28:20Z</time>
      </trkpt>
      <trkpt lat="47.45678" lon="-0.57104">
        <ele>24</ele>
        <time>2022-02-28T08:28:23Z</time>
      </trkpt>
      <trkpt lat="47.45673" lon="-0.57104">
        <ele>24</ele>
        <time>2022-02-28T08:28:24Z</time>
      </trkpt>
      <trkpt lat="47.45626" lon="-0.57166">
        <ele>22</ele>
        <time>2022-02-28T08:28:35Z</time>
      </trkpt>
      <trkpt lat="47.45629" lon="-0.57169">
        <ele>21</ele>
        <time>2022-02-28T08:28:36Z</time>
      </trkpt>
      <trkpt lat="47.45631" lon="-0.57179">
        <ele>21</ele>
        <time>2022-02-28T08:28:37Z</time>
      </trkpt>
      <trkpt lat="47.45627" lon="-0.57188">
        <ele>21</ele>
        <time>2022-02-28T08:28:38Z</time>
      </trkpt>
      <trkpt lat="47.45625" lon="-0.5719">
        <ele>21</ele>
        <time>2022-02-28T08:28:39Z</time>
      </trkpt>
      <trkpt lat="47.45619" lon="-0.5719">
        <ele>21</ele>
        <time>2022-02-28T08:28:40Z</time>
      </trkpt>
      <trkpt lat="47.45614" lon="-0.57185">
        <ele>22</ele>
        <time>2022-02-28T08:28:41Z</time>
      </trkpt>
      <trkpt lat="47.45612" lon="-0.57176">
        <ele>22</ele>
        <time>2022-02-28T08:28:42Z</time>
      </trkpt>
      <trkpt lat="47.45616" lon="-0.57167">
        <ele>22</ele>
        <time>2022-02-28T08:28:43Z</time>
      </trkpt>
      <trkpt lat="47.45582" lon="-0.57113">
        <ele>28</ele>
        <time>2022-02-28T08:28:52Z</time>
      </trkpt>
      <trkpt lat="47.45573" lon="-0.57108">
        <ele>28</ele>
        <time>2022-02-28T08:28:54Z</time>
      </trkpt>
      <trkpt lat="47.45563" lon="-0.5711">
        <ele>29</ele>
        <time>2022-02-28T08:28:56Z</time>
      </trkpt>
      <trkpt lat="47.45503" lon="-0.57155">
        <ele>29</ele>
        <time>2022-02-28T08:29:07Z</time>
      </trkpt>
      <trkpt lat="47.45444" lon="-0.57184">
        <ele>32</ele>
        <time>2022-02-28T08:29:19Z</time>
      </trkpt>
      <trkpt lat="47.4541" lon="-0.57199">
        <ele>33</ele>
        <time>2022-02-28T08:29:25Z</time>
      </trkpt>
      <trkpt lat="47.4537" lon="-0.57226">
        <ele>34</ele>
        <time>2022-02-28T08:29:33Z</time>
      </trkpt>
      <trkpt lat="47.45358" lon="-0.57236">
        <ele>35</ele>
        <time>2022-02-28T08:29:35Z</time>
      </trkpt>
      <trkpt lat="47.45259" lon="-0.57349">
        <ele>36</ele>
        <time>2022-02-28T08:29:57Z</time>
      </trkpt>
      <trkpt lat="47.45047" lon="-0.57571">
        <ele>42</ele>
        <time>2022-02-28T08:30:44Z</time>
      </trkpt>
      <trkpt lat="47.45036" lon="-0.57579">
        <ele>42</ele>
        <time>2022-02-28T08:30:46Z</time>
      </trkpt>
      <trkpt lat="47.45023" lon="-0.57583">
        <ele>42</ele>
        <time>2022-02-28T08:30:48Z</time>
      </trkpt>
      <trkpt lat="47.44998" lon="-0.57583">
        <ele>41</ele>
        <time>2022-02-28T08:30:53Z</time>
      </trkpt>
      <trkpt lat="47.4499" lon="-0.5758">
        <ele>41</ele>
        <time>2022-02-28T08:30:54Z</time>
      </trkpt>
      <trkpt lat="47.44981" lon="-0.57572">
        <ele>40</ele>
        <time>2022-02-28T08:30:56Z</time>
      </trkpt>
      <trkpt lat="47.44973" lon="-0.57561">
        <ele>39</ele>
        <time>2022-02-28T08:30:58Z</time>
      </trkpt>
      <trkpt lat="47.44962" lon="-0.57529">
        <ele>37</ele>
        <time>2022-02-28T08:31:02Z</time>
      </trkpt>
      <trkpt lat="47.44907" lon="-0.57369">
        <ele>38</ele>
        <time>2022-02-28T08:31:24Z</time>
      </trkpt>
      <trkpt lat="47.44896" lon="-0.57344">
        <ele>39</ele>
        <time>2022-02-28T08:31:27Z</time>
      </trkpt>
      <trkpt lat="47.44888" lon="-0.57334">
        <ele>39</ele>
        <time>2022-02-28T08:31:29Z</time>
      </trkpt>
      <trkpt lat="47.44884" lon="-0.57333">
        <ele>39</ele>
        <time>2022-02-28T08:31:30Z</time>
      </trkpt>
      <trkpt lat="47.44859" lon="-0.57342">
        <ele>39</ele>
        <time>2022-02-28T08:31:35Z</time>
      </trkpt>
      <trkpt lat="47.44542" lon="-0.57615">
        <ele>42</ele>
        <time>2022-02-28T08:32:40Z</time>
      </trkpt>
      <trkpt lat="47.44472" lon="-0.57677">
        <ele>42</ele>
        <time>2022-02-28T08:32:54Z</time>
      </trkpt>
      <trkpt lat="47.44414" lon="-0.57559">
        <ele>43</ele>
        <time>2022-02-28T08:33:12Z</time>
      </trkpt>
      <trkpt lat="47.44391" lon="-0.57526">
        <ele>43</ele>
        <time>2022-02-28T08:33:18Z</time>
      </trkpt>
      <trkpt lat="47.44312" lon="-0.57424">
        <ele>43</ele>
        <time>2022-02-28T08:33:36Z</time>
      </trkpt>
      <trkpt lat="47.44303" lon="-0.57407">
        <ele>44</ele>
        <time>2022-02-28T08:33:39Z</time>
      </trkpt>
      <trkpt lat="47.44295" lon="-0.57399">
        <ele>44</ele>
        <time>2022-02-28T08:33:41Z</time>
      </trkpt>
      <trkpt lat="47.44289" lon="-0.57396">
        <ele>44</ele>
        <time>2022-02-28T08:33:42Z</time>
      </trkpt>
      <trkpt lat="47.44282" lon="-0.57387">
        <ele>45</ele>
        <time>2022-02-28T08:33:43Z</time>
      </trkpt>
      <trkpt lat="47.4424" lon="-0.57325">
        <ele>47</ele>
        <time>2022-02-28T08:33:54Z</time>
      </trkpt>
      <trkpt lat="47.44175" lon="-0.57235">
        <ele>46</ele>
        <time>2022-02-28T08:34:10Z</time>
      </trkpt>
      <trkpt lat="47.44156" lon="-0.57207">
        <ele>45</ele>
        <time>2022-02-28T08:34:15Z</time>
      </trkpt>
      <trkpt lat="47.44136" lon="-0.57169">
        <ele>44</ele>
        <time>2022-02-28T08:34:20Z</time>
      </trkpt>
      <trkpt lat="47.44116" lon="-0.57143">
        <ele>43</ele>
        <time>2022-02-28T08:34:25Z</time>
      </trkpt>
      <trkpt lat="47.44101" lon="-0.57131">
        <ele>43</ele>
        <time>2022-02-28T08:34:28Z</time>
      </trkpt>
      <trkpt lat="47.44091" lon="-0.57097">
        <ele>42</ele>
        <time>2022-02-28T08:34:33Z</time>
      </trkpt>
      <trkpt lat="47.44068" lon="-0.57038">
        <ele>42</ele>
        <time>2022-02-28T08:34:41Z</time>
      </trkpt>
      <trkpt lat="47.44021" lon="-0.56937">
        <ele>41</ele>
        <time>2022-02-28T08:34:55Z</time>
      </trkpt>
      <trkpt lat="47.43926" lon="-0.56791">
        <ele>40</ele>
        <time>2022-02-28T08:35:20Z</time>
      </trkpt>
      <trkpt lat="47.43816" lon="-0.56638">
        <ele>39</ele>
        <time>2022-02-28T08:35:47Z</time>
      </trkpt>
      <trkpt lat="47.43799" lon="-0.56611">
        <ele>40</ele>
        <time>2022-02-28T08:35:51Z</time>
      </trkpt>
      <trkpt lat="47.4377" lon="-0.56547">
        <ele>40</ele>
        <time>2022-02-28T08:36:00Z</time>
      </trkpt>
      <trkpt lat="47.4376" lon="-0.56534">
        <ele>41</ele>
        <time>2022-02-28T08:36:03Z</time>
      </trkpt>
      <trkpt lat="47.43743" lon="-0.56524">
        <ele>40</ele>
        <time>2022-02-28T08:36:06Z</time>
      </trkpt>
      <trkpt lat="47.43712" lon="-0.56489">
        <ele>39</ele>
        <time>2022-02-28T08:36:13Z</time>
      </trkpt>
      <trkpt lat="47.43692" lon="-0.56453">
        <ele>39</ele>
        <time>2022-02-28T08:36:19Z</time>
      </trkpt>
      <trkpt lat="47.43637" lon="-0.56337">
        <ele>39</ele>
        <time>2022-02-28T08:36:36Z</time>
      </trkpt>
      <trkpt lat="47.43629" lon="-0.56317">
        <ele>39</ele>
        <time>2022-02-28T08:36:38Z</time>
      </trkpt>
      <trkpt lat="47.43545" lon="-0.56178">
        <ele>39</ele>
        <time>2022-02-28T08:37:01Z</time>
      </trkpt>
      <trkpt lat="47.43477" lon="-0.56077">
        <ele>37</ele>
        <time>2022-02-28T08:37:18Z</time>
      </trkpt>
      <trkpt lat="47.4345" lon="-0.56029">
        <ele>36</ele>
        <time>2022-02-28T08:37:26Z</time>
      </trkpt>
      <trkpt lat="47.43419" lon="-0.55967">
        <ele>37</ele>
        <time>2022-02-28T08:37:35Z</time>
      </trkpt>
      <trkpt lat="47.43394" lon="-0.55901">
        <ele>37</ele>
        <time>2022-02-28T08:37:44Z</time>
      </trkpt>
      <trkpt lat="47.43372" lon="-0.55855">
        <ele>37</ele>
        <time>2022-02-28T08:37:51Z</time>
      </trkpt>
      <trkpt lat="47.43327" lon="-0.55795">
        <ele>35</ele>
        <time>2022-02-28T08:38:02Z</time>
      </trkpt>
      <trkpt lat="47.4331" lon="-0.55765">
        <ele>35</ele>
        <time>2022-02-28T08:38:06Z</time>
      </trkpt>
      <trkpt lat="47.4328" lon="-0.55695">
        <ele>35</ele>
        <time>2022-02-28T08:38:16Z</time>
      </trkpt>
      <trkpt lat="47.43256" lon="-0.55634">
        <ele>35</ele>
        <time>2022-02-28T08:38:25Z</time>
      </trkpt>
      <trkpt lat="47.43215" lon="-0.55545">
        <ele>34</ele>
        <time>2022-02-28T08:38:38Z</time>
      </trkpt>
      <trkpt lat="47.43201" lon="-0.55507">
        <ele>33</ele>
        <time>2022-02-28T08:38:43Z</time>
      </trkpt>
      <trkpt lat="47.43193" lon="-0.55476">
        <ele>32</ele>
        <time>2022-02-28T08:38:47Z</time>
      </trkpt>
      <trkpt lat="47.43161" lon="-0.5542">
        <ele>32</ele>
        <time>2022-02-28T08:38:56Z</time>
      </trkpt>
      <trkpt lat="47.43097" lon="-0.55254">
        <ele>33</ele>
        <time>2022-02-28T08:39:19Z</time>
      </trkpt>
      <trkpt lat="47.43057" lon="-0.55169">
        <ele>33</ele>
        <time>2022-02-28T08:39:31Z</time>
      </trkpt>
      <trkpt lat="47.4299" lon="-0.55044">
        <ele>31</ele>
        <time>2022-02-28T08:39:50Z</time>
      </trkpt>
      <trkpt lat="47.4296" lon="-0.54967">
        <ele>28</ele>
        <time>2022-02-28T08:40:01Z</time>
      </trkpt>
      <trkpt lat="47.42949" lon="-0.54951">
        <ele>28</ele>
        <time>2022-02-28T08:40:04Z</time>
      </trkpt>
      <trkpt lat="47.42941" lon="-0.54943">
        <ele>28</ele>
        <time>2022-02-28T08:40:05Z</time>
      </trkpt>
      <trkpt lat="47.42918" lon="-0.54956">
        <ele>27</ele>
        <time>2022-02-28T08:40:10Z</time>
      </trkpt>
      <trkpt lat="47.42887" lon="-0.54981">
        <ele>26</ele>
        <time>2022-02-28T08:40:16Z</time>
      </trkpt>
      <trkpt lat="47.42876" lon="-0.54987">
        <ele>26</ele>
        <time>2022-02-28T08:40:18Z</time>
      </trkpt>
      <trkpt lat="47.42865" lon="-0.54988">
        <ele>25</ele>
        <time>2022-02-28T08:40:20Z</time>
      </trkpt>
      <trkpt lat="47.42858" lon="-0.54938">
        <ele>25</ele>
        <time>2022-02-28T08:40:26Z</time>
      </trkpt>
      <trkpt lat="47.42864" lon="-0.54928">
        <ele>25</ele>
        <time>2022-02-28T08:40:28Z</time>
      </trkpt>
      <trkpt lat="47.42954" lon="-0.54634">
        <ele>22</ele>
        <time>2022-02-28T08:41:07Z</time>
      </trkpt>
      <trkpt lat="47.42956" lon="-0.5462">
        <ele>22</ele>
        <time>2022-02-28T08:41:09Z</time>
      </trkpt>
      <trkpt lat="47.42955" lon="-0.54603">
        <ele>21</ele>
        <time>2022-02-28T08:41:11Z</time>
      </trkpt>
      <trkpt lat="47.42954" lon="-0.54592">
        <ele>20</ele>
        <time>2022-02-28T08:41:12Z</time>
      </trkpt>
      <trkpt lat="47.42951" lon="-0.54587">
        <ele>20</ele>
        <time>2022-02-28T08:41:13Z</time>
      </trkpt>
      <trkpt lat="47.43005" lon="-0.54409">
        <ele>20</ele>
        <time>2022-02-28T08:41:36Z</time>
      </trkpt>
      <trkpt lat="47.43009" lon="-0.54393">
        <ele>19</ele>
        <time>2022-02-28T08:41:38Z</time>
      </trkpt>
      <trkpt lat="47.43005" lon="-0.54385">
        <ele>19</ele>
        <time>2022-02-28T08:41:39Z</time>
      </trkpt>
      <trkpt lat="47.43005" lon="-0.54381">
        <ele>19</ele>
        <time>2022-02-28T08:41:40Z</time>
      </trkpt>
      <trkpt lat="47.43006" lon="-0.54372">
        <ele>19</ele>
        <time>2022-02-28T08:41:41Z</time>
      </trkpt>
      <trkpt lat="47.43021" lon="-0.54356">
        <ele>19</ele>
        <time>2022-02-28T08:41:44Z</time>
      </trkpt>
      <trkpt lat="47.43052" lon="-0.54252">
        <ele>20</ele>
        <time>2022-02-28T08:41:58Z</time>
      </trkpt>
      <trkpt lat="47.43056" lon="-0.54227">
        <ele>20</ele>
        <time>2022-02-28T08:42:01Z</time>
      </trkpt>
      <trkpt lat="47.43054" lon="-0.54223">
        <ele>20</ele>
        <time>2022-02-28T08:42:02Z</time>
      </trkpt>
      <trkpt lat="47.43049" lon="-0.54216">
        <ele>20</ele>
        <time>2022-02-28T08:42:03Z</time>
      </trkpt>
      <trkpt lat="47.4304" lon="-0.5421">
        <ele>20</ele>
        <time>2022-02-28T08:42:05Z</time>
      </trkpt>
      <trkpt lat="47.43029" lon="-0.54203">
        <ele>20</ele>
        <time>2022-02-28T08:42:07Z</time>
      </trkpt>
      <trkpt lat="47.43017" lon="-0.54196">
        <ele>20</ele>
        <time>2022-02-28T08:42:09Z</time>
      </trkpt>
      <trkpt lat="47.43004" lon="-0.54194">
        <ele>20</ele>
        <time>2022-02-28T08:42:11Z</time>
      </trkpt>
      <trkpt lat="47.42996" lon="-0.542">
        <ele>20</ele>
        <time>2022-02-28T08:42:13Z</time>
      </trkpt>
      <trkpt lat="47.42989" lon="-0.54201">
        <ele>20</ele>
        <time>2022-02-28T08:42:14Z</time>
      </trkpt>
      <trkpt lat="47.42983" lon="-0.54198">
        <ele>19</ele>
        <time>2022-02-28T08:42:15Z</time>
      </trkpt>
      <trkpt lat="47.42978" lon="-0.54192">
        <ele>19</ele>
        <time>2022-02-28T08:42:17Z</time>
      </trkpt>
      <trkpt lat="47.42973" lon="-0.54178">
        <ele>19</ele>
        <time>2022-02-28T08:42:18Z</time>
      </trkpt>
      <trkpt lat="47.42974" lon="-0.54162">
        <ele>19</ele>
        <time>2022-02-28T08:42:20Z</time>
      </trkpt>
      <trkpt lat="47.42981" lon="-0.54149">
        <ele>19</ele>
        <time>2022-02-28T08:42:22Z</time>
      </trkpt>
      <trkpt lat="47.42991" lon="-0.54144">
        <ele>19</ele>
        <time>2022-02-28T08:42:24Z</time>
      </trkpt>
      <trkpt lat="47.42999" lon="-0.54133">
        <ele>19</ele>
        <time>2022-02-28T08:42:26Z</time>
      </trkpt>
      <trkpt lat="47.43119" lon="-0.5374">
        <ele>18</ele>
        <time>2022-02-28T08:43:18Z</time>
      </trkpt>
      <trkpt lat="47.43174" lon="-0.53552">
        <ele>20</ele>
        <time>2022-02-28T08:43:43Z</time>
      </trkpt>
      <trkpt lat="47.43194" lon="-0.535">
        <ele>21</ele>
        <time>2022-02-28T08:43:50Z</time>
      </trkpt>
      <trkpt lat="47.43197" lon="-0.53486">
        <ele>21</ele>
        <time>2022-02-28T08:43:52Z</time>
      </trkpt>
      <trkpt lat="47.432" lon="-0.53478">
        <ele>21</ele>
        <time>2022-02-28T08:43:53Z</time>
      </trkpt>
      <trkpt lat="47.43202" lon="-0.53463">
        <ele>21</ele>
        <time>2022-02-28T08:43:55Z</time>
      </trkpt>
      <trkpt lat="47.43208" lon="-0.53451">
        <ele>22</ele>
        <time>2022-02-28T08:43:56Z</time>
      </trkpt>
      <trkpt lat="47.43212" lon="-0.53433">
        <ele>22</ele>
        <time>2022-02-28T08:43:59Z</time>
      </trkpt>
      <trkpt lat="47.43209" lon="-0.53432">
        <ele>22</ele>
        <time>2022-02-28T08:43:59Z</time>
      </trkpt>
      <trkpt lat="47.43211" lon="-0.53425">
        <ele>22</ele>
        <time>2022-02-28T08:44:00Z</time>
      </trkpt>
      <trkpt lat="47.43211" lon="-0.53397">
        <ele>22</ele>
        <time>2022-02-28T08:44:04Z</time>
      </trkpt>
      <trkpt lat="47.43204" lon="-0.53373">
        <ele>22</ele>
        <time>2022-02-28T08:44:07Z</time>
      </trkpt>
      <trkpt lat="47.43182" lon="-0.53263">
        <ele>23</ele>
        <time>2022-02-28T08:44:21Z</time>
      </trkpt>
      <trkpt lat="47.43179" lon="-0.5323">
        <ele>23</ele>
        <time>2022-02-28T08:44:25Z</time>
      </trkpt>
      <trkpt lat="47.4318" lon="-0.53164">
        <ele>23</ele>
        <time>2022-02-28T08:44:32Z</time>
      </trkpt>
      <trkpt lat="47.43176" lon="-0.53153">
        <ele>23</ele>
        <time>2022-02-28T08:44:34Z</time>
      </trkpt>
      <trkpt lat="47.43186" lon="-0.53156">
        <ele>23</ele>
        <time>2022-02-28T08:44:36Z</time>
      </trkpt>
      <trkpt lat="47.43188" lon="-0.53117">
        <ele>22</ele>
        <time>2022-02-28T08:44:41Z</time>
      </trkpt>
      <trkpt lat="47.43204" lon="-0.5293">
        <ele>22</ele>
        <time>2022-02-28T08:45:03Z</time>
      </trkpt>
      <trkpt lat="47.43202" lon="-0.52903">
        <ele>22</ele>
        <time>2022-02-28T08:45:06Z</time>
      </trkpt>
      <trkpt lat="47.43205" lon="-0.52883">
        <ele>22</ele>
        <time>2022-02-28T08:45:09Z</time>
      </trkpt>
      <trkpt lat="47.43172" lon="-0.52866">
        <ele>21</ele>
        <time>2022-02-28T08:45:15Z</time>
      </trkpt>
      <trkpt lat="47.4308" lon="-0.52831">
        <ele>19</ele>
        <time>2022-02-28T08:45:32Z</time>
      </trkpt>
      <trkpt lat="47.4305" lon="-0.5282">
        <ele>19</ele>
        <time>2022-02-28T08:45:38Z</time>
      </trkpt>
      <trkpt lat="47.43013" lon="-0.52806">
        <ele>20</ele>
        <time>2022-02-28T08:45:44Z</time>
      </trkpt>
      <trkpt lat="47.42982" lon="-0.52797">
        <ele>20</ele>
        <time>2022-02-28T08:45:50Z</time>
      </trkpt>
      <trkpt lat="47.42969" lon="-0.52794">
        <ele>20</ele>
        <time>2022-02-28T08:45:52Z</time>
      </trkpt>
      <trkpt lat="47.42914" lon="-0.52789">
        <ele>21</ele>
        <time>2022-02-28T08:46:02Z</time>
      </trkpt>
      <trkpt lat="47.42895" lon="-0.52784">
        <ele>21</ele>
        <time>2022-02-28T08:46:06Z</time>
      </trkpt>
      <trkpt lat="47.42867" lon="-0.52773">
        <ele>22</ele>
        <time>2022-02-28T08:46:11Z</time>
      </trkpt>
      <trkpt lat="47.42799" lon="-0.52739">
        <ele>23</ele>
        <time>2022-02-28T08:46:23Z</time>
      </trkpt>
      <trkpt lat="47.42731" lon="-0.52692">
        <ele>21</ele>
        <time>2022-02-28T08:46:37Z</time>
      </trkpt>
      <trkpt lat="47.42645" lon="-0.52631">
        <ele>20</ele>
        <time>2022-02-28T08:46:54Z</time>
      </trkpt>
      <trkpt lat="47.4261" lon="-0.52605">
        <ele>21</ele>
        <time>2022-02-28T08:47:01Z</time>
      </trkpt>
      <trkpt lat="47.42604" lon="-0.52605">
        <ele>22</ele>
        <time>2022-02-28T08:47:02Z</time>
      </trkpt>
      <trkpt lat="47.42522" lon="-0.52548">
        <ele>23</ele>
        <time>2022-02-28T08:47:18Z</time>
      </trkpt>
      <trkpt lat="47.42508" lon="-0.52537">
        <ele>23</ele>
        <time>2022-02-28T08:47:21Z</time>
      </trkpt>
      <trkpt lat="47.42497" lon="-0.52534">
        <ele>23</ele>
        <time>2022-02-28T08:47:23Z</time>
      </trkpt>
      <trkpt lat="47.42486" lon="-0.52538">
        <ele>23</ele>
        <time>2022-02-28T08:47:25Z</time>
      </trkpt>
      <trkpt lat="47.42481" lon="-0.52541">
        <ele>23</ele>
        <time>2022-02-28T08:47:26Z</time>
      </trkpt>
      <trkpt lat="47.42475" lon="-0.52541">
        <ele>23</ele>
        <time>2022-02-28T08:47:27Z</time>
      </trkpt>
      <trkpt lat="47.42469" lon="-0.52534">
        <ele>23</ele>
        <time>2022-02-28T08:47:28Z</time>
      </trkpt>
      <trkpt lat="47.42467" lon="-0.52527">
        <ele>23</ele>
        <time>2022-02-28T08:47:29Z</time>
      </trkpt>
      <trkpt lat="47.42467" lon="-0.52519">
        <ele>23</ele>
        <time>2022-02-28T08:47:30Z</time>
      </trkpt>
      <trkpt lat="47.42456" lon="-0.525">
        <ele>23</ele>
        <time>2022-02-28T08:47:33Z</time>
      </trkpt>
      <trkpt lat="47.42379" lon="-0.52442">
        <ele>24</ele>
        <time>2022-02-28T08:47:48Z</time>
      </trkpt>
      <trkpt lat="47.42284" lon="-0.52377">
        <ele>22</ele>
        <time>2022-02-28T08:48:07Z</time>
      </trkpt>
      <trkpt lat="47.42255" lon="-0.52371">
        <ele>21</ele>
        <time>2022-02-28T08:48:12Z</time>
      </trkpt>
      <trkpt lat="47.41976" lon="-0.5235">
        <ele>17</ele>
        <time>2022-02-28T08:49:02Z</time>
      </trkpt>
      <trkpt lat="47.41847" lon="-0.5234">
        <ele>22</ele>
        <time>2022-02-28T08:49:25Z</time>
      </trkpt>
      <trkpt lat="47.4184" lon="-0.5234">
        <ele>22</ele>
        <time>2022-02-28T08:49:26Z</time>
      </trkpt>
      <trkpt lat="47.41837" lon="-0.52337">
        <ele>22</ele>
        <time>2022-02-28T08:49:27Z</time>
      </trkpt>
      <trkpt lat="47.41689" lon="-0.52329">
        <ele>23</ele>
        <time>2022-02-28T08:49:53Z</time>
      </trkpt>
      <trkpt lat="47.41588" lon="-0.52319">
        <ele>24</ele>
        <time>2022-02-28T08:50:11Z</time>
      </trkpt>
      <trkpt lat="47.41477" lon="-0.52314">
        <ele>24</ele>
        <time>2022-02-28T08:50:31Z</time>
      </trkpt>
      <trkpt lat="47.41466" lon="-0.52315">
        <ele>23</ele>
        <time>2022-02-28T08:50:33Z</time>
      </trkpt>
      <trkpt lat="47.4136" lon="-0.52339">
        <ele>21</ele>
        <time>2022-02-28T08:50:52Z</time>
      </trkpt>
      <trkpt lat="47.41229" lon="-0.52378">
        <ele>21</ele>
        <time>2022-02-28T08:51:16Z</time>
      </trkpt>
      <trkpt lat="47.41184" lon="-0.52389">
        <ele>19</ele>
        <time>2022-02-28T08:51:24Z</time>
      </trkpt>
      <trkpt lat="47.41041" lon="-0.5244">
        <ele>20</ele>
        <time>2022-02-28T08:51:50Z</time>
      </trkpt>
      <trkpt lat="47.4101" lon="-0.52451">
        <ele>21</ele>
        <time>2022-02-28T08:51:56Z</time>
      </trkpt>
      <trkpt lat="47.4094" lon="-0.52483">
        <ele>21</ele>
        <time>2022-02-28T08:52:09Z</time>
      </trkpt>
      <trkpt lat="47.40671" lon="-0.52578">
        <ele>17</ele>
        <time>2022-02-28T08:52:58Z</time>
      </trkpt>
      <trkpt lat="47.40664" lon="-0.52581">
        <ele>17</ele>
        <time>2022-02-28T08:52:59Z</time>
      </trkpt>
      <trkpt lat="47.40616" lon="-0.52597">
        <ele>22</ele>
        <time>2022-02-28T08:53:08Z</time>
      </trkpt>
      <trkpt lat="47.40602" lon="-0.526">
        <ele>23</ele>
        <time>2022-02-28T08:53:11Z</time>
      </trkpt>
      <trkpt lat="47.40538" lon="-0.52582">
        <ele>30</ele>
        <time>2022-02-28T08:53:22Z</time>
      </trkpt>
      <trkpt lat="47.40515" lon="-0.5258">
        <ele>32</ele>
        <time>2022-02-28T08:53:26Z</time>
      </trkpt>
      <trkpt lat="47.40496" lon="-0.52586">
        <ele>33</ele>
        <time>2022-02-28T08:53:30Z</time>
      </trkpt>
      <trkpt lat="47.40453" lon="-0.5261">
        <ele>32</ele>
        <time>2022-02-28T08:53:38Z</time>
      </trkpt>
      <trkpt lat="47.40343" lon="-0.52739">
        <ele>31</ele>
        <time>2022-02-28T08:54:03Z</time>
      </trkpt>
      <trkpt lat="47.40276" lon="-0.52679">
        <ele>32</ele>
        <time>2022-02-28T08:54:17Z</time>
      </trkpt>
      <trkpt lat="47.40177" lon="-0.52594">
        <ele>33</ele>
        <time>2022-02-28T08:54:37Z</time>
      </trkpt>
      <trkpt lat="47.40169" lon="-0.52523">
        <ele>32</ele>
        <time>2022-02-28T08:54:46Z</time>
      </trkpt>
      <trkpt lat="47.40152" lon="-0.52524">
        <ele>32</ele>
        <time>2022-02-28T08:54:49Z</time>
      </trkpt>
      <trkpt lat="47.40113" lon="-0.52515">
        <ele>32</ele>
        <time>2022-02-28T08:54:56Z</time>
      </trkpt>
      <trkpt lat="47.4008" lon="-0.52503">
        <ele>31</ele>
        <time>2022-02-28T08:55:02Z</time>
      </trkpt>
      <trkpt lat="47.39998" lon="-0.52461">
        <ele>31</ele>
        <time>2022-02-28T08:55:17Z</time>
      </trkpt>
      <trkpt lat="47.3997" lon="-0.52441">
        <ele>31</ele>
        <time>2022-02-28T08:55:23Z</time>
      </trkpt>
      <trkpt lat="47.39904" lon="-0.52373">
        <ele>31</ele>
        <time>2022-02-28T08:55:37Z</time>
      </trkpt>
      <trkpt lat="47.39895" lon="-0.52369">
        <ele>31</ele>
        <time>2022-02-28T08:55:39Z</time>
      </trkpt>
      <trkpt lat="47.39892" lon="-0.52372">
        <ele>31</ele>
        <time>2022-02-28T08:55:40Z</time>
      </trkpt>
      <trkpt lat="47.39889" lon="-0.52369">
        <ele>31</ele>
        <time>2022-02-28T08:55:40Z</time>
      </trkpt>
      <trkpt lat="47.39843" lon="-0.52381">
        <ele>32</ele>
        <time>2022-02-28T08:55:49Z</time>
      </trkpt>
      <trkpt lat="47.39714" lon="-0.52399">
        <ele>36</ele>
        <time>2022-02-28T08:56:12Z</time>
      </trkpt>
      <trkpt lat="47.39714" lon="-0.52404">
        <ele>36</ele>
        <time>2022-02-28T08:56:12Z</time>
      </trkpt>
      <trkpt lat="47.39711" lon="-0.52406">
        <ele>36</ele>
        <time>2022-02-28T08:56:13Z</time>
      </trkpt>
      <trkpt lat="47.39708" lon="-0.52405">
        <ele>36</ele>
        <time>2022-02-28T08:56:13Z</time>
      </trkpt>
      <trkpt lat="47.39707" lon="-0.52401">
        <ele>36</ele>
        <time>2022-02-28T08:56:14Z</time>
      </trkpt>
      <trkpt lat="47.39619" lon="-0.52408">
        <ele>37</ele>
        <time>2022-02-28T08:56:30Z</time>
      </trkpt>
      <trkpt lat="47.39558" lon="-0.52414">
        <ele>38</ele>
        <time>2022-02-28T08:56:40Z</time>
      </trkpt>
      <trkpt lat="47.3953" lon="-0.52419">
        <ele>38</ele>
        <time>2022-02-28T08:56:45Z</time>
      </trkpt>
      <trkpt lat="47.39527" lon="-0.52392">
        <ele>39</ele>
        <time>2022-02-28T08:56:49Z</time>
      </trkpt>
      <trkpt lat="47.39528" lon="-0.5238">
        <ele>39</ele>
        <time>2022-02-28T08:56:50Z</time>
      </trkpt>
      <trkpt lat="47.39532" lon="-0.52369">
        <ele>39</ele>
        <time>2022-02-28T08:56:52Z</time>
      </trkpt>
      <trkpt lat="47.39557" lon="-0.52319">
        <ele>38</ele>
        <time>2022-02-28T08:56:59Z</time>
      </trkpt>
      <trkpt lat="47.39566" lon="-0.52291">
        <ele>37</ele>
        <time>2022-02-28T08:57:03Z</time>
      </trkpt>
      <trkpt lat="47.39581" lon="-0.52231">
        <ele>36</ele>
        <time>2022-02-28T08:57:11Z</time>
      </trkpt>
      <trkpt lat="47.396" lon="-0.5214">
        <ele>34</ele>
        <time>2022-02-28T08:57:22Z</time>
      </trkpt>
      <trkpt lat="47.39615" lon="-0.52073">
        <ele>33</ele>
        <time>2022-02-28T08:57:31Z</time>
      </trkpt>
      <trkpt lat="47.39618" lon="-0.5205">
        <ele>33</ele>
        <time>2022-02-28T08:57:33Z</time>
      </trkpt>
      <trkpt lat="47.39617" lon="-0.52037">
        <ele>33</ele>
        <time>2022-02-28T08:57:35Z</time>
      </trkpt>
      <trkpt lat="47.39611" lon="-0.52016">
        <ele>34</ele>
        <time>2022-02-28T08:57:38Z</time>
      </trkpt>
      <trkpt lat="47.39591" lon="-0.51989">
        <ele>35</ele>
        <time>2022-02-28T08:57:43Z</time>
      </trkpt>
      <trkpt lat="47.39536" lon="-0.51938">
        <ele>37</ele>
        <time>2022-02-28T08:57:54Z</time>
      </trkpt>
      <trkpt lat="47.3933" lon="-0.51772">
        <ele>43</ele>
        <time>2022-02-28T08:58:36Z</time>
      </trkpt>
      <trkpt lat="47.39309" lon="-0.51746">
        <ele>43</ele>
        <time>2022-02-28T08:58:41Z</time>
      </trkpt>
      <trkpt lat="47.39261" lon="-0.5168">
        <ele>44</ele>
        <time>2022-02-28T08:58:52Z</time>
      </trkpt>
      <trkpt lat="47.39193" lon="-0.51594">
        <ele>45</ele>
        <time>2022-02-28T08:59:08Z</time>
      </trkpt>
      <trkpt lat="47.39181" lon="-0.51577">
        <ele>45</ele>
        <time>2022-02-28T08:59:11Z</time>
      </trkpt>
      <trkpt lat="47.39165" lon="-0.51544">
        <ele>46</ele>
        <time>2022-02-28T08:59:16Z</time>
      </trkpt>
      <trkpt lat="47.39137" lon="-0.51457">
        <ele>47</ele>
        <time>2022-02-28T08:59:28Z</time>
      </trkpt>
      <trkpt lat="47.39122" lon="-0.51424">
        <ele>48</ele>
        <time>2022-02-28T08:59:33Z</time>
      </trkpt>
      <trkpt lat="47.39101" lon="-0.51396">
        <ele>48</ele>
        <time>2022-02-28T08:59:38Z</time>
      </trkpt>
      <trkpt lat="47.39088" lon="-0.51384">
        <ele>49</ele>
        <time>2022-02-28T08:59:40Z</time>
      </trkpt>
      <trkpt lat="47.39074" lon="-0.51373">
        <ele>50</ele>
        <time>2022-02-28T08:59:43Z</time>
      </trkpt>
      <trkpt lat="47.38887" lon="-0.51288">
        <ele>50</ele>
        <time>2022-02-28T09:00:18Z</time>
      </trkpt>
      <trkpt lat="47.38826" lon="-0.51245">
        <ele>51</ele>
        <time>2022-02-28T09:00:30Z</time>
      </trkpt>
      <trkpt lat="47.38811" lon="-0.51225">
        <ele>51</ele>
        <time>2022-02-28T09:00:34Z</time>
      </trkpt>
      <trkpt lat="47.38802" lon="-0.51202">
        <ele>51</ele>
        <time>2022-02-28T09:00:37Z</time>
      </trkpt>
      <trkpt lat="47.38797" lon="-0.51203">
        <ele>51</ele>
        <time>2022-02-28T09:00:38Z</time>
      </trkpt>
      <trkpt lat="47.3879" lon="-0.512">
        <ele>51</ele>
        <time>2022-02-28T09:00:39Z</time>
      </trkpt>
      <trkpt lat="47.38785" lon="-0.51193">
        <ele>51</ele>
        <time>2022-02-28T09:00:40Z</time>
      </trkpt>
      <trkpt lat="47.38784" lon="-0.51188">
        <ele>51</ele>
        <time>2022-02-28T09:00:41Z</time>
      </trkpt>
      <trkpt lat="47.38759" lon="-0.51191">
        <ele>52</ele>
        <time>2022-02-28T09:00:45Z</time>
      </trkpt>
      <trkpt lat="47.3875" lon="-0.51187">
        <ele>52</ele>
        <time>2022-02-28T09:00:47Z</time>
      </trkpt>
      <trkpt lat="47.38555" lon="-0.51029">
        <ele>51</ele>
        <time>2022-02-28T09:01:27Z</time>
      </trkpt>
      <trkpt lat="47.38527" lon="-0.51011">
        <ele>50</ele>
        <time>2022-02-28T09:01:32Z</time>
      </trkpt>
      <trkpt lat="47.38503" lon="-0.50998">
        <ele>49</ele>
        <time>2022-02-28T09:01:37Z</time>
      </trkpt>
      <trkpt lat="47.38478" lon="-0.50987">
        <ele>49</ele>
        <time>2022-02-28T09:01:41Z</time>
      </trkpt>
      <trkpt lat="47.38425" lon="-0.50972">
        <ele>49</ele>
        <time>2022-02-28T09:01:51Z</time>
      </trkpt>
      <trkpt lat="47.38331" lon="-0.50948">
        <ele>49</ele>
        <time>2022-02-28T09:02:08Z</time>
      </trkpt>
      <trkpt lat="47.38261" lon="-0.50939">
        <ele>47</ele>
        <time>2022-02-28T09:02:20Z</time>
      </trkpt>
      <trkpt lat="47.38196" lon="-0.50917">
        <ele>45</ele>
        <time>2022-02-28T09:02:32Z</time>
      </trkpt>
      <trkpt lat="47.38148" lon="-0.50897">
        <ele>44</ele>
        <time>2022-02-28T09:02:41Z</time>
      </trkpt>
      <trkpt lat="47.38024" lon="-0.50837">
        <ele>41</ele>
        <time>2022-02-28T09:03:04Z</time>
      </trkpt>
      <trkpt lat="47.38001" lon="-0.50819">
        <ele>41</ele>
        <time>2022-02-28T09:03:09Z</time>
      </trkpt>
      <trkpt lat="47.37986" lon="-0.50802">
        <ele>40</ele>
        <time>2022-02-28T09:03:12Z</time>
      </trkpt>
      <trkpt lat="47.37965" lon="-0.50768">
        <ele>39</ele>
        <time>2022-02-28T09:03:18Z</time>
      </trkpt>
      <trkpt lat="47.37936" lon="-0.50713">
        <ele>38</ele>
        <time>2022-02-28T09:03:26Z</time>
      </trkpt>
      <trkpt lat="47.3791" lon="-0.50678">
        <ele>38</ele>
        <time>2022-02-28T09:03:32Z</time>
      </trkpt>
      <trkpt lat="47.37873" lon="-0.50645">
        <ele>36</ele>
        <time>2022-02-28T09:03:40Z</time>
      </trkpt>
      <trkpt lat="47.3784" lon="-0.50612">
        <ele>34</ele>
        <time>2022-02-28T09:03:47Z</time>
      </trkpt>
      <trkpt lat="47.3782" lon="-0.50584">
        <ele>34</ele>
        <time>2022-02-28T09:03:52Z</time>
      </trkpt>
      <trkpt lat="47.37812" lon="-0.50568">
        <ele>33</ele>
        <time>2022-02-28T09:03:54Z</time>
      </trkpt>
      <trkpt lat="47.37741" lon="-0.50379">
        <ele>29</ele>
        <time>2022-02-28T09:04:21Z</time>
      </trkpt>
      <trkpt lat="47.37718" lon="-0.50333">
        <ele>29</ele>
        <time>2022-02-28T09:04:27Z</time>
      </trkpt>
      <trkpt lat="47.37663" lon="-0.50253">
        <ele>27</ele>
        <time>2022-02-28T09:04:41Z</time>
      </trkpt>
      <trkpt lat="47.37635" lon="-0.50209">
        <ele>27</ele>
        <time>2022-02-28T09:04:48Z</time>
      </trkpt>
      <trkpt lat="47.37568" lon="-0.50081">
        <ele>29</ele>
        <time>2022-02-28T09:05:08Z</time>
      </trkpt>
      <trkpt lat="47.37542" lon="-0.50039">
        <ele>29</ele>
        <time>2022-02-28T09:05:15Z</time>
      </trkpt>
      <trkpt lat="47.37487" lon="-0.4996">
        <ele>29</ele>
        <time>2022-02-28T09:05:28Z</time>
      </trkpt>
      <trkpt lat="47.37437" lon="-0.499">
        <ele>27</ele>
        <time>2022-02-28T09:05:40Z</time>
      </trkpt>
      <trkpt lat="47.37393" lon="-0.49856">
        <ele>27</ele>
        <time>2022-02-28T09:05:49Z</time>
      </trkpt>
      <trkpt lat="47.37375" lon="-0.49833">
        <ele>27</ele>
        <time>2022-02-28T09:05:54Z</time>
      </trkpt>
      <trkpt lat="47.37365" lon="-0.49814">
        <ele>27</ele>
        <time>2022-02-28T09:05:56Z</time>
      </trkpt>
      <trkpt lat="47.37332" lon="-0.49726">
        <ele>27</ele>
        <time>2022-02-28T09:06:09Z</time>
      </trkpt>
      <trkpt lat="47.37324" lon="-0.49718">
        <ele>27</ele>
        <time>2022-02-28T09:06:10Z</time>
      </trkpt>
      <trkpt lat="47.37312" lon="-0.49716">
        <ele>27</ele>
        <time>2022-02-28T09:06:12Z</time>
      </trkpt>
      <trkpt lat="47.37292" lon="-0.49718">
        <ele>27</ele>
        <time>2022-02-28T09:06:16Z</time>
      </trkpt>
      <trkpt lat="47.37259" lon="-0.49721">
        <ele>27</ele>
        <time>2022-02-28T09:06:22Z</time>
      </trkpt>
      <trkpt lat="47.37235" lon="-0.49719">
        <ele>28</ele>
        <time>2022-02-28T09:06:26Z</time>
      </trkpt>
      <trkpt lat="47.37221" lon="-0.49716">
        <ele>29</ele>
        <time>2022-02-28T09:06:29Z</time>
      </trkpt>
      <trkpt lat="47.37044" lon="-0.49652">
        <ele>39</ele>
        <time>2022-02-28T09:07:01Z</time>
      </trkpt>
      <trkpt lat="47.37045" lon="-0.49643">
        <ele>39</ele>
        <time>2022-02-28T09:07:02Z</time>
      </trkpt>
      <trkpt lat="47.37044" lon="-0.4963">
        <ele>39</ele>
        <time>2022-02-28T09:07:04Z</time>
      </trkpt>
      <trkpt lat="47.37036" lon="-0.49587">
        <ele>38</ele>
        <time>2022-02-28T09:07:09Z</time>
      </trkpt>
      <trkpt lat="47.37027" lon="-0.49557">
        <ele>38</ele>
        <time>2022-02-28T09:07:13Z</time>
      </trkpt>
      <trkpt lat="47.36992" lon="-0.49417">
        <ele>37</ele>
        <time>2022-02-28T09:07:31Z</time>
      </trkpt>
      <trkpt lat="47.36974" lon="-0.49355">
        <ele>38</ele>
        <time>2022-02-28T09:07:39Z</time>
      </trkpt>
      <trkpt lat="47.36968" lon="-0.49304">
        <ele>38</ele>
        <time>2022-02-28T09:07:45Z</time>
      </trkpt>
      <trkpt lat="47.36959" lon="-0.49253">
        <ele>39</ele>
        <time>2022-02-28T09:07:52Z</time>
      </trkpt>
      <trkpt lat="47.36928" lon="-0.49103">
        <ele>37</ele>
        <time>2022-02-28T09:08:11Z</time>
      </trkpt>
      <trkpt lat="47.36861" lon="-0.4876">
        <ele>36</ele>
        <time>2022-02-28T09:08:54Z</time>
      </trkpt>
      <trkpt lat="47.36855" lon="-0.48736">
        <ele>37</ele>
        <time>2022-02-28T09:08:57Z</time>
      </trkpt>
      <trkpt lat="47.36835" lon="-0.48672">
        <ele>39</ele>
        <time>2022-02-28T09:09:05Z</time>
      </trkpt>
      <trkpt lat="47.36797" lon="-0.48526">
        <ele>40</ele>
        <time>2022-02-28T09:09:24Z</time>
      </trkpt>
      <trkpt lat="47.36785" lon="-0.48465">
        <ele>40</ele>
        <time>2022-02-28T09:09:32Z</time>
      </trkpt>
      <trkpt lat="47.3677" lon="-0.48365">
        <ele>39</ele>
        <time>2022-02-28T09:09:44Z</time>
      </trkpt>
      <trkpt lat="47.36764" lon="-0.48333">
        <ele>39</ele>
        <time>2022-02-28T09:09:48Z</time>
      </trkpt>
      <trkpt lat="47.36755" lon="-0.48303">
        <ele>39</ele>
        <time>2022-02-28T09:09:52Z</time>
      </trkpt>
      <trkpt lat="47.36689" lon="-0.48152">
        <ele>38</ele>
        <time>2022-02-28T09:10:14Z</time>
      </trkpt>
      <trkpt lat="47.36621" lon="-0.48024">
        <ele>36</ele>
        <time>2022-02-28T09:10:33Z</time>
      </trkpt>
      <trkpt lat="47.36576" lon="-0.47925">
        <ele>36</ele>
        <time>2022-02-28T09:10:48Z</time>
      </trkpt>
      <trkpt lat="47.36554" lon="-0.47859">
        <ele>34</ele>
        <time>2022-02-28T09:10:57Z</time>
      </trkpt>
      <trkpt lat="47.3654" lon="-0.47838">
        <ele>34</ele>
        <time>2022-02-28T09:11:00Z</time>
      </trkpt>
      <trkpt lat="47.36527" lon="-0.47831">
        <ele>34</ele>
        <time>2022-02-28T09:11:03Z</time>
      </trkpt>
      <trkpt lat="47.3651" lon="-0.47831">
        <ele>34</ele>
        <time>2022-02-28T09:11:06Z</time>
      </trkpt>
      <trkpt lat="47.36409" lon="-0.47864">
        <ele>35</ele>
        <time>2022-02-28T09:11:24Z</time>
      </trkpt>
      <trkpt lat="47.36383" lon="-0.47868">
        <ele>35</ele>
        <time>2022-02-28T09:11:29Z</time>
      </trkpt>
      <trkpt lat="47.36327" lon="-0.47862">
        <ele>35</ele>
        <time>2022-02-28T09:11:39Z</time>
      </trkpt>
      <trkpt lat="47.36293" lon="-0.47856">
        <ele>36</ele>
        <time>2022-02-28T09:11:45Z</time>
      </trkpt>
      <trkpt lat="47.36274" lon="-0.47846">
        <ele>36</ele>
        <time>2022-02-28T09:11:48Z</time>
      </trkpt>
      <trkpt lat="47.36258" lon="-0.4783">
        <ele>36</ele>
        <time>2022-02-28T09:11:52Z</time>
      </trkpt>
      <trkpt lat="47.3624" lon="-0.47804">
        <ele>35</ele>
        <time>2022-02-28T09:11:56Z</time>
      </trkpt>
      <trkpt lat="47.36227" lon="-0.4778">
        <ele>34</ele>
        <time>2022-02-28T09:12:00Z</time>
      </trkpt>
      <trkpt lat="47.36217" lon="-0.47753">
        <ele>33</ele>
        <time>2022-02-28T09:12:04Z</time>
      </trkpt>
      <trkpt lat="47.36201" lon="-0.47666">
        <ele>31</ele>
        <time>2022-02-28T09:12:15Z</time>
      </trkpt>
      <trkpt lat="47.36199" lon="-0.47627">
        <ele>32</ele>
        <time>2022-02-28T09:12:19Z</time>
      </trkpt>
      <trkpt lat="47.362" lon="-0.47608">
        <ele>32</ele>
        <time>2022-02-28T09:12:22Z</time>
      </trkpt>
      <trkpt lat="47.36211" lon="-0.47497">
        <ele>34</ele>
        <time>2022-02-28T09:12:35Z</time>
      </trkpt>
      <trkpt lat="47.36212" lon="-0.47475">
        <ele>34</ele>
        <time>2022-02-28T09:12:38Z</time>
      </trkpt>
      <trkpt lat="47.3621" lon="-0.47451">
        <ele>35</ele>
        <time>2022-02-28T09:12:41Z</time>
      </trkpt>
      <trkpt lat="47.36207" lon="-0.47438">
        <ele>36</ele>
        <time>2022-02-28T09:12:42Z</time>
      </trkpt>
      <trkpt lat="47.36116" lon="-0.4745">
        <ele>39</ele>
        <time>2022-02-28T09:12:59Z</time>
      </trkpt>
      <trkpt lat="47.35983" lon="-0.47451">
        <ele>41</ele>
        <time>2022-02-28T09:13:22Z</time>
      </trkpt>
      <trkpt lat="47.35961" lon="-0.47453">
        <ele>42</ele>
        <time>2022-02-28T09:13:26Z</time>
      </trkpt>
      <trkpt lat="47.35857" lon="-0.47473">
        <ele>44</ele>
        <time>2022-02-28T09:13:45Z</time>
      </trkpt>
      <trkpt lat="47.35581" lon="-0.47508">
        <ele>50</ele>
        <time>2022-02-28T09:14:34Z</time>
      </trkpt>
      <trkpt lat="47.35519" lon="-0.47528">
        <ele>50</ele>
        <time>2022-02-28T09:14:45Z</time>
      </trkpt>
      <trkpt lat="47.35461" lon="-0.47553">
        <ele>49</ele>
        <time>2022-02-28T09:14:56Z</time>
      </trkpt>
      <trkpt lat="47.35398" lon="-0.47553">
        <ele>52</ele>
        <time>2022-02-28T09:15:07Z</time>
      </trkpt>
      <trkpt lat="47.35333" lon="-0.47526">
        <ele>56</ele>
        <time>2022-02-28T09:15:19Z</time>
      </trkpt>
      <trkpt lat="47.35311" lon="-0.47513">
        <ele>57</ele>
        <time>2022-02-28T09:15:24Z</time>
      </trkpt>
      <trkpt lat="47.35302" lon="-0.47506">
        <ele>57</ele>
        <time>2022-02-28T09:15:25Z</time>
      </trkpt>
      <trkpt lat="47.35272" lon="-0.47472">
        <ele>59</ele>
        <time>2022-02-28T09:15:32Z</time>
      </trkpt>
      <trkpt lat="47.35136" lon="-0.47415">
        <ele>61</ele>
        <time>2022-02-28T09:15:57Z</time>
      </trkpt>
      <trkpt lat="47.3508" lon="-0.47428">
        <ele>60</ele>
        <time>2022-02-28T09:16:07Z</time>
      </trkpt>
      <trkpt lat="47.34947" lon="-0.47448">
        <ele>60</ele>
        <time>2022-02-28T09:16:31Z</time>
      </trkpt>
      <trkpt lat="47.3488" lon="-0.47463">
        <ele>62</ele>
        <time>2022-02-28T09:16:43Z</time>
      </trkpt>
      <trkpt lat="47.34844" lon="-0.47474">
        <ele>63</ele>
        <time>2022-02-28T09:16:50Z</time>
      </trkpt>
      <trkpt lat="47.34812" lon="-0.47487">
        <ele>64</ele>
        <time>2022-02-28T09:16:56Z</time>
      </trkpt>
      <trkpt lat="47.34765" lon="-0.47519">
        <ele>65</ele>
        <time>2022-02-28T09:17:05Z</time>
      </trkpt>
      <trkpt lat="47.34722" lon="-0.47551">
        <ele>66</ele>
        <time>2022-02-28T09:17:13Z</time>
      </trkpt>
      <trkpt lat="47.34641" lon="-0.47583">
        <ele>68</ele>
        <time>2022-02-28T09:17:28Z</time>
      </trkpt>
      <trkpt lat="47.34527" lon="-0.47624">
        <ele>69</ele>
        <time>2022-02-28T09:17:49Z</time>
      </trkpt>
      <trkpt lat="47.34486" lon="-0.47645">
        <ele>70</ele>
        <time>2022-02-28T09:17:57Z</time>
      </trkpt>
      <trkpt lat="47.34439" lon="-0.47681">
        <ele>70</ele>
        <time>2022-02-28T09:18:06Z</time>
      </trkpt>
      <trkpt lat="47.34429" lon="-0.47697">
        <ele>70</ele>
        <time>2022-02-28T09:18:09Z</time>
      </trkpt>
      <trkpt lat="47.34425" lon="-0.47714">
        <ele>70</ele>
        <time>2022-02-28T09:18:11Z</time>
      </trkpt>
      <trkpt lat="47.34423" lon="-0.4774">
        <ele>70</ele>
        <time>2022-02-28T09:18:14Z</time>
      </trkpt>
      <trkpt lat="47.34419" lon="-0.47759">
        <ele>70</ele>
        <time>2022-02-28T09:18:17Z</time>
      </trkpt>
      <trkpt lat="47.34412" lon="-0.47774">
        <ele>70</ele>
        <time>2022-02-28T09:18:19Z</time>
      </trkpt>
      <trkpt lat="47.34352" lon="-0.47802">
        <ele>69</ele>
        <time>2022-02-28T09:18:30Z</time>
      </trkpt>
      <trkpt lat="47.34324" lon="-0.47817">
        <ele>70</ele>
        <time>2022-02-28T09:18:35Z</time>
      </trkpt>
      <trkpt lat="47.34293" lon="-0.47853">
        <ele>70</ele>
        <time>2022-02-28T09:18:42Z</time>
      </trkpt>
      <trkpt lat="47.34266" lon="-0.47878">
        <ele>71</ele>
        <time>2022-02-28T09:18:48Z</time>
      </trkpt>
      <trkpt lat="47.34254" lon="-0.47883">
        <ele>71</ele>
        <time>2022-02-28T09:18:50Z</time>
      </trkpt>
      <trkpt lat="47.34242" lon="-0.47878">
        <ele>70</ele>
        <time>2022-02-28T09:18:53Z</time>
      </trkpt>
      <trkpt lat="47.34222" lon="-0.4786">
        <ele>70</ele>
        <time>2022-02-28T09:18:57Z</time>
      </trkpt>
      <trkpt lat="47.34148" lon="-0.47785">
        <ele>70</ele>
        <time>2022-02-28T09:19:13Z</time>
      </trkpt>
      <trkpt lat="47.34111" lon="-0.47759">
        <ele>70</ele>
        <time>2022-02-28T09:19:20Z</time>
      </trkpt>
      <trkpt lat="47.34043" lon="-0.47723">
        <ele>71</ele>
        <time>2022-02-28T09:19:33Z</time>
      </trkpt>
      <trkpt lat="47.34001" lon="-0.47712">
        <ele>72</ele>
        <time>2022-02-28T09:19:40Z</time>
      </trkpt>
      <trkpt lat="47.33989" lon="-0.47717">
        <ele>72</ele>
        <time>2022-02-28T09:19:43Z</time>
      </trkpt>
      <trkpt lat="47.33901" lon="-0.47771">
        <ele>72</ele>
        <time>2022-02-28T09:20:00Z</time>
      </trkpt>
      <trkpt lat="47.33846" lon="-0.47799">
        <ele>73</ele>
        <time>2022-02-28T09:20:10Z</time>
      </trkpt>
      <trkpt lat="47.33801" lon="-0.47811">
        <ele>73</ele>
        <time>2022-02-28T09:20:18Z</time>
      </trkpt>
      <trkpt lat="47.33764" lon="-0.47816">
        <ele>73</ele>
        <time>2022-02-28T09:20:25Z</time>
      </trkpt>
      <trkpt lat="47.337" lon="-0.4782">
        <ele>74</ele>
        <time>2022-02-28T09:20:36Z</time>
      </trkpt>
      <trkpt lat="47.33655" lon="-0.47818">
        <ele>74</ele>
        <time>2022-02-28T09:20:44Z</time>
      </trkpt>
      <trkpt lat="47.33625" lon="-0.47836">
        <ele>73</ele>
        <time>2022-02-28T09:20:50Z</time>
      </trkpt>
      <trkpt lat="47.33599" lon="-0.47821">
        <ele>72</ele>
        <time>2022-02-28T09:20:55Z</time>
      </trkpt>
      <trkpt lat="47.33569" lon="-0.47799">
        <ele>72</ele>
        <time>2022-02-28T09:21:01Z</time>
      </trkpt>
      <trkpt lat="47.33524" lon="-0.47756">
        <ele>71</ele>
        <time>2022-02-28T09:21:10Z</time>
      </trkpt>
      <trkpt lat="47.33481" lon="-0.4772">
        <ele>70</ele>
        <time>2022-02-28T09:21:19Z</time>
      </trkpt>
      <trkpt lat="47.33411" lon="-0.47631">
        <ele>68</ele>
        <time>2022-02-28T09:21:36Z</time>
      </trkpt>
      <trkpt lat="47.3338" lon="-0.47599">
        <ele>67</ele>
        <time>2022-02-28T09:21:42Z</time>
      </trkpt>
      <trkpt lat="47.33352" lon="-0.47654">
        <ele>67</ele>
        <time>2022-02-28T09:21:51Z</time>
      </trkpt>
      <trkpt lat="47.33326" lon="-0.47681">
        <ele>67</ele>
        <time>2022-02-28T09:21:56Z</time>
      </trkpt>
      <trkpt lat="47.33326" lon="-0.47688">
        <ele>67</ele>
        <time>2022-02-28T09:21:57Z</time>
      </trkpt>
      <trkpt lat="47.33322" lon="-0.47692">
        <ele>68</ele>
        <time>2022-02-28T09:21:58Z</time>
      </trkpt>
      <trkpt lat="47.33319" lon="-0.47689">
        <ele>68</ele>
        <time>2022-02-28T09:21:59Z</time>
      </trkpt>
      <trkpt lat="47.33318" lon="-0.47683">
        <ele>68</ele>
        <time>2022-02-28T09:21:59Z</time>
      </trkpt>
      <trkpt lat="47.33288" lon="-0.47687">
        <ele>68</ele>
        <time>2022-02-28T09:22:05Z</time>
      </trkpt>
      <trkpt lat="47.33209" lon="-0.47702">
        <ele>70</ele>
        <time>2022-02-28T09:22:19Z</time>
      </trkpt>
      <trkpt lat="47.33184" lon="-0.47713">
        <ele>71</ele>
        <time>2022-02-28T09:22:24Z</time>
      </trkpt>
      <trkpt lat="47.33173" lon="-0.47723">
        <ele>72</ele>
        <time>2022-02-28T09:22:26Z</time>
      </trkpt>
      <trkpt lat="47.3315" lon="-0.47734">
        <ele>72</ele>
        <time>2022-02-28T09:22:30Z</time>
      </trkpt>
      <trkpt lat="47.33082" lon="-0.47754">
        <ele>73</ele>
        <time>2022-02-28T09:22:42Z</time>
      </trkpt>
      <trkpt lat="47.33077" lon="-0.47753">
        <ele>73</ele>
        <time>2022-02-28T09:22:43Z</time>
      </trkpt>
      <trkpt lat="47.33072" lon="-0.47748">
        <ele>73</ele>
        <time>2022-02-28T09:22:44Z</time>
      </trkpt>
      <trkpt lat="47.33019" lon="-0.47557">
        <ele>72</ele>
        <time>2022-02-28T09:23:09Z</time>
      </trkpt>
      <trkpt lat="47.33006" lon="-0.47483">
        <ele>71</ele>
        <time>2022-02-28T09:23:19Z</time>
      </trkpt>
      <trkpt lat="47.33" lon="-0.47469">
        <ele>70</ele>
        <time>2022-02-28T09:23:21Z</time>
      </trkpt>
      <trkpt lat="47.32988" lon="-0.47458">
        <ele>70</ele>
        <time>2022-02-28T09:23:23Z</time>
      </trkpt>
      <trkpt lat="47.3298" lon="-0.47454">
        <ele>70</ele>
        <time>2022-02-28T09:23:25Z</time>
      </trkpt>
      <trkpt lat="47.32928" lon="-0.47442">
        <ele>71</ele>
        <time>2022-02-28T09:23:34Z</time>
      </trkpt>
      <trkpt lat="47.32916" lon="-0.47437">
        <ele>71</ele>
        <time>2022-02-28T09:23:36Z</time>
      </trkpt>
      <trkpt lat="47.32902" lon="-0.47424">
        <ele>71</ele>
        <time>2022-02-28T09:23:39Z</time>
      </trkpt>
      <trkpt lat="47.32889" lon="-0.47403">
        <ele>71</ele>
        <time>2022-02-28T09:23:43Z</time>
      </trkpt>
      <trkpt lat="47.32864" lon="-0.47341">
        <ele>71</ele>
        <time>2022-02-28T09:23:51Z</time>
      </trkpt>
      <trkpt lat="47.32854" lon="-0.47323">
        <ele>71</ele>
        <time>2022-02-28T09:23:54Z</time>
      </trkpt>
      <trkpt lat="47.32813" lon="-0.47261">
        <ele>72</ele>
        <time>2022-02-28T09:24:04Z</time>
      </trkpt>
      <trkpt lat="47.32789" lon="-0.47216">
        <ele>72</ele>
        <time>2022-02-28T09:24:11Z</time>
      </trkpt>
      <trkpt lat="47.32775" lon="-0.47182">
        <ele>72</ele>
        <time>2022-02-28T09:24:16Z</time>
      </trkpt>
      <trkpt lat="47.32767" lon="-0.47154">
        <ele>72</ele>
        <time>2022-02-28T09:24:20Z</time>
      </trkpt>
      <trkpt lat="47.32761" lon="-0.47125">
        <ele>73</ele>
        <time>2022-02-28T09:24:24Z</time>
      </trkpt>
      <trkpt lat="47.32745" lon="-0.47022">
        <ele>74</ele>
        <time>2022-02-28T09:24:36Z</time>
      </trkpt>
      <trkpt lat="47.32742" lon="-0.46997">
        <ele>74</ele>
        <time>2022-02-28T09:24:39Z</time>
      </trkpt>
      <trkpt lat="47.32738" lon="-0.46929">
        <ele>75</ele>
        <time>2022-02-28T09:24:48Z</time>
      </trkpt>
      <trkpt lat="47.32715" lon="-0.46763">
        <ele>76</ele>
        <time>2022-02-28T09:25:08Z</time>
      </trkpt>
      <trkpt lat="47.327" lon="-0.46629">
        <ele>74</ele>
        <time>2022-02-28T09:25:24Z</time>
      </trkpt>
      <trkpt lat="47.32693" lon="-0.466">
        <ele>73</ele>
        <time>2022-02-28T09:25:28Z</time>
      </trkpt>
      <trkpt lat="47.32677" lon="-0.46559">
        <ele>72</ele>
        <time>2022-02-28T09:25:34Z</time>
      </trkpt>
      <trkpt lat="47.32654" lon="-0.46519">
        <ele>70</ele>
        <time>2022-02-28T09:25:40Z</time>
      </trkpt>
      <trkpt lat="47.3264" lon="-0.46498">
        <ele>69</ele>
        <time>2022-02-28T09:25:44Z</time>
      </trkpt>
      <trkpt lat="47.32308" lon="-0.46069">
        <ele>49</ele>
        <time>2022-02-28T09:27:02Z</time>
      </trkpt>
      <trkpt lat="47.32297" lon="-0.46059">
        <ele>49</ele>
        <time>2022-02-28T09:27:04Z</time>
      </trkpt>
      <trkpt lat="47.3228" lon="-0.46044">
        <ele>50</ele>
        <time>2022-02-28T09:27:08Z</time>
      </trkpt>
      <trkpt lat="47.32265" lon="-0.46037">
        <ele>50</ele>
        <time>2022-02-28T09:27:11Z</time>
      </trkpt>
      <trkpt lat="47.32202" lon="-0.46024">
        <ele>51</ele>
        <time>2022-02-28T09:27:22Z</time>
      </trkpt>
      <trkpt lat="47.32166" lon="-0.46028">
        <ele>50</ele>
        <time>2022-02-28T09:27:29Z</time>
      </trkpt>
      <trkpt lat="47.3207" lon="-0.46065">
        <ele>57</ele>
        <time>2022-02-28T09:27:46Z</time>
      </trkpt>
      <trkpt lat="47.32049" lon="-0.46071">
        <ele>58</ele>
        <time>2022-02-28T09:27:50Z</time>
      </trkpt>
      <trkpt lat="47.32035" lon="-0.46072">
        <ele>59</ele>
        <time>2022-02-28T09:27:53Z</time>
      </trkpt>
      <trkpt lat="47.32021" lon="-0.4607">
        <ele>59</ele>
        <time>2022-02-28T09:27:55Z</time>
      </trkpt>
      <trkpt lat="47.32005" lon="-0.46064">
        <ele>60</ele>
        <time>2022-02-28T09:27:58Z</time>
      </trkpt>
      <trkpt lat="47.31927" lon="-0.46015">
        <ele>62</ele>
        <time>2022-02-28T09:28:13Z</time>
      </trkpt>
      <trkpt lat="47.31902" lon="-0.46006">
        <ele>62</ele>
        <time>2022-02-28T09:28:18Z</time>
      </trkpt>
      <trkpt lat="47.31836" lon="-0.46005">
        <ele>65</ele>
        <time>2022-02-28T09:28:29Z</time>
      </trkpt>
      <trkpt lat="47.31796" lon="-0.4599">
        <ele>64</ele>
        <time>2022-02-28T09:28:37Z</time>
      </trkpt>
      <trkpt lat="47.31699" lon="-0.45964">
        <ele>64</ele>
        <time>2022-02-28T09:28:54Z</time>
      </trkpt>
      <trkpt lat="47.31614" lon="-0.45962">
        <ele>64</ele>
        <time>2022-02-28T09:29:09Z</time>
      </trkpt>
      <trkpt lat="47.31519" lon="-0.45955">
        <ele>63</ele>
        <time>2022-02-28T09:29:26Z</time>
      </trkpt>
      <trkpt lat="47.31382" lon="-0.45957">
        <ele>60</ele>
        <time>2022-02-28T09:29:51Z</time>
      </trkpt>
      <trkpt lat="47.31365" lon="-0.45954">
        <ele>60</ele>
        <time>2022-02-28T09:29:54Z</time>
      </trkpt>
      <trkpt lat="47.3135" lon="-0.4595">
        <ele>59</ele>
        <time>2022-02-28T09:29:56Z</time>
      </trkpt>
      <trkpt lat="47.3133" lon="-0.45936">
        <ele>59</ele>
        <time>2022-02-28T09:30:00Z</time>
      </trkpt>
      <trkpt lat="47.31278" lon="-0.45893">
        <ele>62</ele>
        <time>2022-02-28T09:30:11Z</time>
      </trkpt>
      <trkpt lat="47.31249" lon="-0.45873">
        <ele>64</ele>
        <time>2022-02-28T09:30:17Z</time>
      </trkpt>
      <trkpt lat="47.31197" lon="-0.45841">
        <ele>65</ele>
        <time>2022-02-28T09:30:27Z</time>
      </trkpt>
      <trkpt lat="47.31108" lon="-0.45799">
        <ele>67</ele>
        <time>2022-02-28T09:30:43Z</time>
      </trkpt>
      <trkpt lat="47.31067" lon="-0.45784">
        <ele>67</ele>
        <time>2022-02-28T09:30:51Z</time>
      </trkpt>
      <trkpt lat="47.31042" lon="-0.45772">
        <ele>67</ele>
        <time>2022-02-28T09:30:56Z</time>
      </trkpt>
      <trkpt lat="47.30916" lon="-0.45701">
        <ele>66</ele>
        <time>2022-02-28T09:31:20Z</time>
      </trkpt>
      <trkpt lat="47.30844" lon="-0.45652">
        <ele>67</ele>
        <time>2022-02-28T09:31:34Z</time>
      </trkpt>
      <trkpt lat="47.30819" lon="-0.45638">
        <ele>67</ele>
        <time>2022-02-28T09:31:38Z</time>
      </trkpt>
      <trkpt lat="47.3078" lon="-0.45625">
        <ele>68</ele>
        <time>2022-02-28T09:31:45Z</time>
      </trkpt>
      <trkpt lat="47.30714" lon="-0.45614">
        <ele>68</ele>
        <time>2022-02-28T09:31:57Z</time>
      </trkpt>
      <trkpt lat="47.30692" lon="-0.45606">
        <ele>68</ele>
        <time>2022-02-28T09:32:01Z</time>
      </trkpt>
      <trkpt lat="47.30652" lon="-0.45585">
        <ele>69</ele>
        <time>2022-02-28T09:32:09Z</time>
      </trkpt>
      <trkpt lat="47.30586" lon="-0.45566">
        <ele>69</ele>
        <time>2022-02-28T09:32:21Z</time>
      </trkpt>
      <trkpt lat="47.30565" lon="-0.45582">
        <ele>70</ele>
        <time>2022-02-28T09:32:25Z</time>
      </trkpt>
      <trkpt lat="47.30421" lon="-0.4563">
        <ele>72</ele>
        <time>2022-02-28T09:32:51Z</time>
      </trkpt>
      <trkpt lat="47.30369" lon="-0.45643">
        <ele>73</ele>
        <time>2022-02-28T09:33:01Z</time>
      </trkpt>
      <trkpt lat="47.30318" lon="-0.45665">
        <ele>73</ele>
        <time>2022-02-28T09:33:10Z</time>
      </trkpt>
      <trkpt lat="47.30199" lon="-0.4568">
        <ele>75</ele>
        <time>2022-02-28T09:33:31Z</time>
      </trkpt>
      <trkpt lat="47.30175" lon="-0.45697">
        <ele>75</ele>
        <time>2022-02-28T09:33:36Z</time>
      </trkpt>
      <trkpt lat="47.30104" lon="-0.45769">
        <ele>73</ele>
        <time>2022-02-28T09:33:51Z</time>
      </trkpt>
      <trkpt lat="47.30041" lon="-0.45813">
        <ele>72</ele>
        <time>2022-02-28T09:34:04Z</time>
      </trkpt>
      <trkpt lat="47.29999" lon="-0.4583">
        <ele>71</ele>
        <time>2022-02-28T09:34:12Z</time>
      </trkpt>
      <trkpt lat="47.29927" lon="-0.45836">
        <ele>73</ele>
        <time>2022-02-28T09:34:24Z</time>
      </trkpt>
      <trkpt lat="47.29818" lon="-0.45825">
        <ele>73</ele>
        <time>2022-02-28T09:34:44Z</time>
      </trkpt>
      <trkpt lat="47.29769" lon="-0.45827">
        <ele>72</ele>
        <time>2022-02-28T09:34:53Z</time>
      </trkpt>
      <trkpt lat="47.2973" lon="-0.45833">
        <ele>72</ele>
        <time>2022-02-28T09:35:00Z</time>
      </trkpt>
      <trkpt lat="47.2969" lon="-0.45854">
        <ele>73</ele>
        <time>2022-02-28T09:35:07Z</time>
      </trkpt>
      <trkpt lat="47.2966" lon="-0.45875">
        <ele>73</ele>
        <time>2022-02-28T09:35:13Z</time>
      </trkpt>
      <trkpt lat="47.29651" lon="-0.45886">
        <ele>73</ele>
        <time>2022-02-28T09:35:15Z</time>
      </trkpt>
      <trkpt lat="47.29635" lon="-0.45896">
        <ele>74</ele>
        <time>2022-02-28T09:35:18Z</time>
      </trkpt>
      <trkpt lat="47.29631" lon="-0.45896">
        <ele>74</ele>
        <time>2022-02-28T09:35:19Z</time>
      </trkpt>
      <trkpt lat="47.29618" lon="-0.45913">
        <ele>75</ele>
        <time>2022-02-28T09:35:22Z</time>
      </trkpt>
      <trkpt lat="47.29543" lon="-0.45988">
        <ele>77</ele>
        <time>2022-02-28T09:35:38Z</time>
      </trkpt>
      <trkpt lat="47.29504" lon="-0.46039">
        <ele>78</ele>
        <time>2022-02-28T09:35:47Z</time>
      </trkpt>
      <trkpt lat="47.29456" lon="-0.45988">
        <ele>79</ele>
        <time>2022-02-28T09:35:58Z</time>
      </trkpt>
      <trkpt lat="47.29341" lon="-0.45879">
        <ele>74</ele>
        <time>2022-02-28T09:36:22Z</time>
      </trkpt>
      <trkpt lat="47.29338" lon="-0.45877">
        <ele>74</ele>
        <time>2022-02-28T09:36:23Z</time>
      </trkpt>
      <trkpt lat="47.29179" lon="-0.46207">
        <ele>76</ele>
        <time>2022-02-28T09:37:12Z</time>
      </trkpt>
      <trkpt lat="47.2913" lon="-0.46314">
        <ele>79</ele>
        <time>2022-02-28T09:37:27Z</time>
      </trkpt>
      <trkpt lat="47.29111" lon="-0.46367">
        <ele>80</ele>
        <time>2022-02-28T09:37:35Z</time>
      </trkpt>
      <trkpt lat="47.29095" lon="-0.46428">
        <ele>80</ele>
        <time>2022-02-28T09:37:42Z</time>
      </trkpt>
      <trkpt lat="47.29086" lon="-0.46485">
        <ele>79</ele>
        <time>2022-02-28T09:37:50Z</time>
      </trkpt>
      <trkpt lat="47.29077" lon="-0.46581">
        <ele>81</ele>
        <time>2022-02-28T09:38:01Z</time>
      </trkpt>
      <trkpt lat="47.29064" lon="-0.46653">
        <ele>83</ele>
        <time>2022-02-28T09:38:10Z</time>
      </trkpt>
      <trkpt lat="47.2905" lon="-0.46706">
        <ele>83</ele>
        <time>2022-02-28T09:38:17Z</time>
      </trkpt>
      <trkpt lat="47.2883" lon="-0.47274">
        <ele>86</ele>
        <time>2022-02-28T09:39:36Z</time>
      </trkpt>
      <trkpt lat="47.28754" lon="-0.47466">
        <ele>86</ele>
        <time>2022-02-28T09:40:03Z</time>
      </trkpt>
      <trkpt lat="47.28717" lon="-0.4754">
        <ele>86</ele>
        <time>2022-02-28T09:40:14Z</time>
      </trkpt>
      <trkpt lat="47.287" lon="-0.47569">
        <ele>86</ele>
        <time>2022-02-28T09:40:19Z</time>
      </trkpt>
      <trkpt lat="47.28663" lon="-0.4762">
        <ele>87</ele>
        <time>2022-02-28T09:40:28Z</time>
      </trkpt>
      <trkpt lat="47.28616" lon="-0.47671">
        <ele>88</ele>
        <time>2022-02-28T09:40:38Z</time>
      </trkpt>
      <trkpt lat="47.28514" lon="-0.47761">
        <ele>89</ele>
        <time>2022-02-28T09:40:59Z</time>
      </trkpt>
      <trkpt lat="47.28398" lon="-0.47856">
        <ele>90</ele>
        <time>2022-02-28T09:41:23Z</time>
      </trkpt>
      <trkpt lat="47.28271" lon="-0.47954">
        <ele>91</ele>
        <time>2022-02-28T09:41:48Z</time>
      </trkpt>
      <trkpt lat="47.27863" lon="-0.48288">
        <ele>90</ele>
        <time>2022-02-28T09:43:11Z</time>
      </trkpt>
      <trkpt lat="47.27822" lon="-0.48318">
        <ele>89</ele>
        <time>2022-02-28T09:43:19Z</time>
      </trkpt>
      <trkpt lat="47.27751" lon="-0.48378">
        <ele>87</ele>
        <time>2022-02-28T09:43:34Z</time>
      </trkpt>
      <trkpt lat="47.27727" lon="-0.48404">
        <ele>87</ele>
        <time>2022-02-28T09:43:39Z</time>
      </trkpt>
      <trkpt lat="47.2771" lon="-0.48428">
        <ele>86</ele>
        <time>2022-02-28T09:43:43Z</time>
      </trkpt>
      <trkpt lat="47.27696" lon="-0.48451">
        <ele>86</ele>
        <time>2022-02-28T09:43:47Z</time>
      </trkpt>
      <trkpt lat="47.27679" lon="-0.48487">
        <ele>85</ele>
        <time>2022-02-28T09:43:52Z</time>
      </trkpt>
      <trkpt lat="47.27674" lon="-0.48482">
        <ele>85</ele>
        <time>2022-02-28T09:43:54Z</time>
      </trkpt>
      <trkpt lat="47.27653" lon="-0.48469">
        <ele>86</ele>
        <time>2022-02-28T09:43:58Z</time>
      </trkpt>
      <trkpt lat="47.27642" lon="-0.48455">
        <ele>86</ele>
        <time>2022-02-28T09:44:00Z</time>
      </trkpt>
      <trkpt lat="47.27636" lon="-0.48442">
        <ele>87</ele>
        <time>2022-02-28T09:44:02Z</time>
      </trkpt>
      <trkpt lat="47.27613" lon="-0.48355">
        <ele>89</ele>
        <time>2022-02-28T09:44:13Z</time>
      </trkpt>
      <trkpt lat="47.27598" lon="-0.48318">
        <ele>90</ele>
        <time>2022-02-28T09:44:19Z</time>
      </trkpt>
      <trkpt lat="47.27575" lon="-0.48288">
        <ele>91</ele>
        <time>2022-02-28T09:44:24Z</time>
      </trkpt>
      <trkpt lat="47.2756" lon="-0.48262">
        <ele>91</ele>
        <time>2022-02-28T09:44:28Z</time>
      </trkpt>
      <trkpt lat="47.27529" lon="-0.48239">
        <ele>91</ele>
        <time>2022-02-28T09:44:34Z</time>
      </trkpt>
      <trkpt lat="47.27521" lon="-0.48228">
        <ele>91</ele>
        <time>2022-02-28T09:44:36Z</time>
      </trkpt>
      <trkpt lat="47.27442" lon="-0.48029">
        <ele>93</ele>
        <time>2022-02-28T09:45:04Z</time>
      </trkpt>
      <trkpt lat="47.27345" lon="-0.47833">
        <ele>89</ele>
        <time>2022-02-28T09:45:33Z</time>
      </trkpt>
      <trkpt lat="47.2729" lon="-0.47709">
        <ele>87</ele>
        <time>2022-02-28T09:45:51Z</time>
      </trkpt>
      <trkpt lat="47.27275" lon="-0.4767">
        <ele>87</ele>
        <time>2022-02-28T09:45:57Z</time>
      </trkpt>
      <trkpt lat="47.27207" lon="-0.47459">
        <ele>91</ele>
        <time>2022-02-28T09:46:25Z</time>
      </trkpt>
      <trkpt lat="47.27163" lon="-0.47332">
        <ele>93</ele>
        <time>2022-02-28T09:46:42Z</time>
      </trkpt>
      <trkpt lat="47.27134" lon="-0.47269">
        <ele>94</ele>
        <time>2022-02-28T09:46:51Z</time>
      </trkpt>
      <trkpt lat="47.27112" lon="-0.47227">
        <ele>94</ele>
        <time>2022-02-28T09:46:58Z</time>
      </trkpt>
      <trkpt lat="47.27025" lon="-0.47077">
        <ele>93</ele>
        <time>2022-02-28T09:47:22Z</time>
      </trkpt>
      <trkpt lat="47.26945" lon="-0.46957">
        <ele>95</ele>
        <time>2022-02-28T09:47:42Z</time>
      </trkpt>
      <trkpt lat="47.26889" lon="-0.46845">
        <ele>95</ele>
        <time>2022-02-28T09:47:59Z</time>
      </trkpt>
      <trkpt lat="47.26885" lon="-0.4683">
        <ele>95</ele>
        <time>2022-02-28T09:48:01Z</time>
      </trkpt>
      <trkpt lat="47.26882" lon="-0.46811">
        <ele>95</ele>
        <time>2022-02-28T09:48:03Z</time>
      </trkpt>
      <trkpt lat="47.26881" lon="-0.46756">
        <ele>96</ele>
        <time>2022-02-28T09:48:10Z</time>
      </trkpt>
      <trkpt lat="47.26791" lon="-0.46757">
        <ele>95</ele>
        <time>2022-02-28T09:48:26Z</time>
      </trkpt>
      <trkpt lat="47.2673" lon="-0.46769">
        <ele>96</ele>
        <time>2022-02-28T09:48:37Z</time>
      </trkpt>
      <trkpt lat="47.26704" lon="-0.46776">
        <ele>96</ele>
        <time>2022-02-28T09:48:41Z</time>
      </trkpt>
      <trkpt lat="47.26676" lon="-0.46788">
        <ele>97</ele>
        <time>2022-02-28T09:48:46Z</time>
      </trkpt>
      <trkpt lat="47.26657" lon="-0.46793">
        <ele>97</ele>
        <time>2022-02-28T09:48:50Z</time>
      </trkpt>
      <trkpt lat="47.26569" lon="-0.468">
        <ele>97</ele>
        <time>2022-02-28T09:49:06Z</time>
      </trkpt>
      <trkpt lat="47.26538" lon="-0.46809">
        <ele>96</ele>
        <time>2022-02-28T09:49:11Z</time>
      </trkpt>
      <trkpt lat="47.26516" lon="-0.46819">
        <ele>95</ele>
        <time>2022-02-28T09:49:15Z</time>
      </trkpt>
      <trkpt lat="47.26469" lon="-0.4685">
        <ele>93</ele>
        <time>2022-02-28T09:49:24Z</time>
      </trkpt>
      <trkpt lat="47.26372" lon="-0.46895">
        <ele>88</ele>
        <time>2022-02-28T09:49:43Z</time>
      </trkpt>
      <trkpt lat="47.26318" lon="-0.46931">
        <ele>85</ele>
        <time>2022-02-28T09:49:53Z</time>
      </trkpt>
      <trkpt lat="47.2614" lon="-0.47053">
        <ele>71</ele>
        <time>2022-02-28T09:50:28Z</time>
      </trkpt>
      <trkpt lat="47.26034" lon="-0.47135">
        <ele>65</ele>
        <time>2022-02-28T09:50:49Z</time>
      </trkpt>
      <trkpt lat="47.26002" lon="-0.47155">
        <ele>64</ele>
        <time>2022-02-28T09:50:55Z</time>
      </trkpt>
      <trkpt lat="47.259" lon="-0.47209">
        <ele>62</ele>
        <time>2022-02-28T09:51:15Z</time>
      </trkpt>
      <trkpt lat="47.25868" lon="-0.47229">
        <ele>62</ele>
        <time>2022-02-28T09:51:21Z</time>
      </trkpt>
      <trkpt lat="47.25857" lon="-0.47241">
        <ele>62</ele>
        <time>2022-02-28T09:51:23Z</time>
      </trkpt>
      <trkpt lat="47.25846" lon="-0.47258">
        <ele>61</ele>
        <time>2022-02-28T09:51:26Z</time>
      </trkpt>
      <trkpt lat="47.25807" lon="-0.47335">
        <ele>56</ele>
        <time>2022-02-28T09:51:38Z</time>
      </trkpt>
      <trkpt lat="47.25732" lon="-0.47443">
        <ele>51</ele>
        <time>2022-02-28T09:51:56Z</time>
      </trkpt>
      <trkpt lat="47.25721" lon="-0.47461">
        <ele>50</ele>
        <time>2022-02-28T09:51:59Z</time>
      </trkpt>
      <trkpt lat="47.2569" lon="-0.4753">
        <ele>48</ele>
        <time>2022-02-28T09:52:09Z</time>
      </trkpt>
      <trkpt lat="47.2565" lon="-0.47448">
        <ele>49</ele>
        <time>2022-02-28T09:52:22Z</time>
      </trkpt>
      <trkpt lat="47.25628" lon="-0.47396">
        <ele>49</ele>
        <time>2022-02-28T09:52:29Z</time>
      </trkpt>
      <trkpt lat="47.25607" lon="-0.47341">
        <ele>49</ele>
        <time>2022-02-28T09:52:37Z</time>
      </trkpt>
      <trkpt lat="47.25565" lon="-0.47215">
        <ele>49</ele>
        <time>2022-02-28T09:52:54Z</time>
      </trkpt>
      <trkpt lat="47.25545" lon="-0.47137">
        <ele>49</ele>
        <time>2022-02-28T09:53:04Z</time>
      </trkpt>
      <trkpt lat="47.25534" lon="-0.47076">
        <ele>49</ele>
        <time>2022-02-28T09:53:11Z</time>
      </trkpt>
      <trkpt lat="47.25526" lon="-0.4699">
        <ele>48</ele>
        <time>2022-02-28T09:53:22Z</time>
      </trkpt>
      <trkpt lat="47.25521" lon="-0.46902">
        <ele>47</ele>
        <time>2022-02-28T09:53:32Z</time>
      </trkpt>
      <trkpt lat="47.25513" lon="-0.46827">
        <ele>49</ele>
        <time>2022-02-28T09:53:42Z</time>
      </trkpt>
      <trkpt lat="47.25503" lon="-0.46771">
        <ele>50</ele>
        <time>2022-02-28T09:53:49Z</time>
      </trkpt>
      <trkpt lat="47.25491" lon="-0.46725">
        <ele>52</ele>
        <time>2022-02-28T09:53:55Z</time>
      </trkpt>
      <trkpt lat="47.25482" lon="-0.46695">
        <ele>52</ele>
        <time>2022-02-28T09:53:58Z</time>
      </trkpt>
      <trkpt lat="47.2547" lon="-0.46667">
        <ele>53</ele>
        <time>2022-02-28T09:54:02Z</time>
      </trkpt>
      <trkpt lat="47.25444" lon="-0.46612">
        <ele>54</ele>
        <time>2022-02-28T09:54:11Z</time>
      </trkpt>
      <trkpt lat="47.25365" lon="-0.46472">
        <ele>53</ele>
        <time>2022-02-28T09:54:33Z</time>
      </trkpt>
      <trkpt lat="47.25281" lon="-0.46336">
        <ele>52</ele>
        <time>2022-02-28T09:54:55Z</time>
      </trkpt>
      <trkpt lat="47.25261" lon="-0.46292">
        <ele>50</ele>
        <time>2022-02-28T09:55:01Z</time>
      </trkpt>
      <trkpt lat="47.25216" lon="-0.46177">
        <ele>49</ele>
        <time>2022-02-28T09:55:17Z</time>
      </trkpt>
      <trkpt lat="47.25192" lon="-0.46132">
        <ele>48</ele>
        <time>2022-02-28T09:55:24Z</time>
      </trkpt>
      <trkpt lat="47.25165" lon="-0.46091">
        <ele>46</ele>
        <time>2022-02-28T09:55:31Z</time>
      </trkpt>
      <trkpt lat="47.25121" lon="-0.46036">
        <ele>45</ele>
        <time>2022-02-28T09:55:41Z</time>
      </trkpt>
      <trkpt lat="47.25087" lon="-0.45988">
        <ele>44</ele>
        <time>2022-02-28T09:55:50Z</time>
      </trkpt>
      <trkpt lat="47.25063" lon="-0.45944">
        <ele>44</ele>
        <time>2022-02-28T09:55:56Z</time>
      </trkpt>
      <trkpt lat="47.25041" lon="-0.45896">
        <ele>44</ele>
        <time>2022-02-28T09:56:03Z</time>
      </trkpt>
      <trkpt lat="47.25018" lon="-0.45832">
        <ele>43</ele>
        <time>2022-02-28T09:56:12Z</time>
      </trkpt>
      <trkpt lat="47.24947" lon="-0.45602">
        <ele>44</ele>
        <time>2022-02-28T09:56:43Z</time>
      </trkpt>
      <trkpt lat="47.24896" lon="-0.45464">
        <ele>46</ele>
        <time>2022-02-28T09:57:02Z</time>
      </trkpt>
      <trkpt lat="47.24815" lon="-0.45288">
        <ele>49</ele>
        <time>2022-02-28T09:57:27Z</time>
      </trkpt>
      <trkpt lat="47.24766" lon="-0.45134">
        <ele>52</ele>
        <time>2022-02-28T09:57:48Z</time>
      </trkpt>
      <trkpt lat="47.24753" lon="-0.45096">
        <ele>52</ele>
        <time>2022-02-28T09:57:53Z</time>
      </trkpt>
      <trkpt lat="47.24589" lon="-0.44766">
        <ele>56</ele>
        <time>2022-02-28T09:58:42Z</time>
      </trkpt>
      <trkpt lat="47.24523" lon="-0.44649">
        <ele>57</ele>
        <time>2022-02-28T09:59:01Z</time>
      </trkpt>
      <trkpt lat="47.24389" lon="-0.44436">
        <ele>59</ele>
        <time>2022-02-28T09:59:36Z</time>
      </trkpt>
      <trkpt lat="47.24357" lon="-0.4439">
        <ele>59</ele>
        <time>2022-02-28T09:59:44Z</time>
      </trkpt>
      <trkpt lat="47.24319" lon="-0.44344">
        <ele>59</ele>
        <time>2022-02-28T09:59:53Z</time>
      </trkpt>
      <trkpt lat="47.24252" lon="-0.44272">
        <ele>62</ele>
        <time>2022-02-28T10:00:07Z</time>
      </trkpt>
      <trkpt lat="47.24227" lon="-0.44249">
        <ele>64</ele>
        <time>2022-02-28T10:00:13Z</time>
      </trkpt>
      <trkpt lat="47.24146" lon="-0.44182">
        <ele>66</ele>
        <time>2022-02-28T10:00:29Z</time>
      </trkpt>
      <trkpt lat="47.23779" lon="-0.43913">
        <ele>62</ele>
        <time>2022-02-28T10:01:42Z</time>
      </trkpt>
      <trkpt lat="47.23719" lon="-0.43876">
        <ele>61</ele>
        <time>2022-02-28T10:01:54Z</time>
      </trkpt>
      <trkpt lat="47.23633" lon="-0.43833">
        <ele>60</ele>
        <time>2022-02-28T10:02:10Z</time>
      </trkpt>
      <trkpt lat="47.2356" lon="-0.43804">
        <ele>59</ele>
        <time>2022-02-28T10:02:23Z</time>
      </trkpt>
      <trkpt lat="47.23545" lon="-0.43794">
        <ele>59</ele>
        <time>2022-02-28T10:02:26Z</time>
      </trkpt>
      <trkpt lat="47.2353" lon="-0.43779">
        <ele>59</ele>
        <time>2022-02-28T10:02:29Z</time>
      </trkpt>
      <trkpt lat="47.23523" lon="-0.43784">
        <ele>59</ele>
        <time>2022-02-28T10:02:31Z</time>
      </trkpt>
      <trkpt lat="47.23516" lon="-0.43784">
        <ele>59</ele>
        <time>2022-02-28T10:02:32Z</time>
      </trkpt>
      <trkpt lat="47.2333" lon="-0.43743">
        <ele>60</ele>
        <time>2022-02-28T10:03:06Z</time>
      </trkpt>
      <trkpt lat="47.231" lon="-0.43723">
        <ele>59</ele>
        <time>2022-02-28T10:03:47Z</time>
      </trkpt>
      <trkpt lat="47.22944" lon="-0.43688">
        <ele>60</ele>
        <time>2022-02-28T10:04:15Z</time>
      </trkpt>
      <trkpt lat="47.22932" lon="-0.43681">
        <ele>60</ele>
        <time>2022-02-28T10:04:17Z</time>
      </trkpt>
      <trkpt lat="47.22925" lon="-0.43697">
        <ele>60</ele>
        <time>2022-02-28T10:04:19Z</time>
      </trkpt>
      <trkpt lat="47.22916" lon="-0.43695">
        <ele>60</ele>
        <time>2022-02-28T10:04:21Z</time>
      </trkpt>
      <trkpt lat="47.22909" lon="-0.43688">
        <ele>60</ele>
        <time>2022-02-28T10:04:22Z</time>
      </trkpt>
      <trkpt lat="47.22901" lon="-0.43674">
        <ele>60</ele>
        <time>2022-02-28T10:04:25Z</time>
      </trkpt>
      <trkpt lat="47.22889" lon="-0.43657">
        <ele>59</ele>
        <time>2022-02-28T10:04:28Z</time>
      </trkpt>
      <trkpt lat="47.22814" lon="-0.43575">
        <ele>57</ele>
        <time>2022-02-28T10:04:44Z</time>
      </trkpt>
      <trkpt lat="47.22795" lon="-0.43554">
        <ele>57</ele>
        <time>2022-02-28T10:04:48Z</time>
      </trkpt>
      <trkpt lat="47.22773" lon="-0.43523">
        <ele>56</ele>
        <time>2022-02-28T10:04:54Z</time>
      </trkpt>
      <trkpt lat="47.22705" lon="-0.43419">
        <ele>55</ele>
        <time>2022-02-28T10:05:11Z</time>
      </trkpt>
      <trkpt lat="47.22689" lon="-0.434">
        <ele>54</ele>
        <time>2022-02-28T10:05:15Z</time>
      </trkpt>
      <trkpt lat="47.22675" lon="-0.43386">
        <ele>54</ele>
        <time>2022-02-28T10:05:18Z</time>
      </trkpt>
      <trkpt lat="47.22643" lon="-0.4336">
        <ele>55</ele>
        <time>2022-02-28T10:05:24Z</time>
      </trkpt>
      <trkpt lat="47.22604" lon="-0.4334">
        <ele>56</ele>
        <time>2022-02-28T10:05:32Z</time>
      </trkpt>
      <trkpt lat="47.22569" lon="-0.43329">
        <ele>57</ele>
        <time>2022-02-28T10:05:38Z</time>
      </trkpt>
      <trkpt lat="47.22529" lon="-0.43324">
        <ele>57</ele>
        <time>2022-02-28T10:05:45Z</time>
      </trkpt>
      <trkpt lat="47.22493" lon="-0.43328">
        <ele>57</ele>
        <time>2022-02-28T10:05:52Z</time>
      </trkpt>
      <trkpt lat="47.22297" lon="-0.43369">
        <ele>57</ele>
        <time>2022-02-28T10:06:27Z</time>
      </trkpt>
      <trkpt lat="47.22263" lon="-0.43382">
        <ele>56</ele>
        <time>2022-02-28T10:06:33Z</time>
      </trkpt>
      <trkpt lat="47.22239" lon="-0.43394">
        <ele>56</ele>
        <time>2022-02-28T10:06:38Z</time>
      </trkpt>
      <trkpt lat="47.22123" lon="-0.43464">
        <ele>57</ele>
        <time>2022-02-28T10:07:00Z</time>
      </trkpt>
      <trkpt lat="47.22099" lon="-0.43472">
        <ele>57</ele>
        <time>2022-02-28T10:07:04Z</time>
      </trkpt>
      <trkpt lat="47.22059" lon="-0.4348">
        <ele>56</ele>
        <time>2022-02-28T10:07:12Z</time>
      </trkpt>
      <trkpt lat="47.22038" lon="-0.43481">
        <ele>56</ele>
        <time>2022-02-28T10:07:15Z</time>
      </trkpt>
      <trkpt lat="47.22002" lon="-0.43477">
        <ele>55</ele>
        <time>2022-02-28T10:07:22Z</time>
      </trkpt>
      <trkpt lat="47.2198" lon="-0.4347">
        <ele>55</ele>
        <time>2022-02-28T10:07:26Z</time>
      </trkpt>
      <trkpt lat="47.21941" lon="-0.43452">
        <ele>54</ele>
        <time>2022-02-28T10:07:33Z</time>
      </trkpt>
      <trkpt lat="47.21841" lon="-0.43377">
        <ele>50</ele>
        <time>2022-02-28T10:07:53Z</time>
      </trkpt>
      <trkpt lat="47.21791" lon="-0.43324">
        <ele>47</ele>
        <time>2022-02-28T10:08:04Z</time>
      </trkpt>
      <trkpt lat="47.21685" lon="-0.43205">
        <ele>42</ele>
        <time>2022-02-28T10:08:28Z</time>
      </trkpt>
      <trkpt lat="47.21647" lon="-0.43175">
        <ele>40</ele>
        <time>2022-02-28T10:08:35Z</time>
      </trkpt>
      <trkpt lat="47.21606" lon="-0.43153">
        <ele>39</ele>
        <time>2022-02-28T10:08:43Z</time>
      </trkpt>
      <trkpt lat="47.21578" lon="-0.43145">
        <ele>39</ele>
        <time>2022-02-28T10:08:48Z</time>
      </trkpt>
      <trkpt lat="47.21468" lon="-0.43121">
        <ele>39</ele>
        <time>2022-02-28T10:09:08Z</time>
      </trkpt>
      <trkpt lat="47.21432" lon="-0.43113">
        <ele>40</ele>
        <time>2022-02-28T10:09:14Z</time>
      </trkpt>
      <trkpt lat="47.21345" lon="-0.43098">
        <ele>41</ele>
        <time>2022-02-28T10:09:30Z</time>
      </trkpt>
      <trkpt lat="47.21314" lon="-0.43098">
        <ele>42</ele>
        <time>2022-02-28T10:09:35Z</time>
      </trkpt>
      <trkpt lat="47.21276" lon="-0.43107">
        <ele>43</ele>
        <time>2022-02-28T10:09:42Z</time>
      </trkpt>
      <trkpt lat="47.21245" lon="-0.43121">
        <ele>44</ele>
        <time>2022-02-28T10:09:48Z</time>
      </trkpt>
      <trkpt lat="47.21219" lon="-0.43137">
        <ele>45</ele>
        <time>2022-02-28T10:09:53Z</time>
      </trkpt>
      <trkpt lat="47.21035" lon="-0.43272">
        <ele>52</ele>
        <time>2022-02-28T10:10:30Z</time>
      </trkpt>
      <trkpt lat="47.21002" lon="-0.43289">
        <ele>53</ele>
        <time>2022-02-28T10:10:36Z</time>
      </trkpt>
      <trkpt lat="47.20968" lon="-0.43299">
        <ele>55</ele>
        <time>2022-02-28T10:10:42Z</time>
      </trkpt>
      <trkpt lat="47.20793" lon="-0.43325">
        <ele>58</ele>
        <time>2022-02-28T10:11:13Z</time>
      </trkpt>
      <trkpt lat="47.2069" lon="-0.43319">
        <ele>59</ele>
        <time>2022-02-28T10:11:32Z</time>
      </trkpt>
      <trkpt lat="47.20674" lon="-0.43321">
        <ele>60</ele>
        <time>2022-02-28T10:11:35Z</time>
      </trkpt>
      <trkpt lat="47.20659" lon="-0.4332">
        <ele>60</ele>
        <time>2022-02-28T10:11:37Z</time>
      </trkpt>
      <trkpt lat="47.2064" lon="-0.43315">
        <ele>60</ele>
        <time>2022-02-28T10:11:41Z</time>
      </trkpt>
      <trkpt lat="47.20565" lon="-0.43309">
        <ele>59</ele>
        <time>2022-02-28T10:11:54Z</time>
      </trkpt>
      <trkpt lat="47.20548" lon="-0.43305">
        <ele>60</ele>
        <time>2022-02-28T10:11:57Z</time>
      </trkpt>
      <trkpt lat="47.20468" lon="-0.43281">
        <ele>60</ele>
        <time>2022-02-28T10:12:12Z</time>
      </trkpt>
      <trkpt lat="47.20384" lon="-0.4325">
        <ele>58</ele>
        <time>2022-02-28T10:12:27Z</time>
      </trkpt>
      <trkpt lat="47.20349" lon="-0.43233">
        <ele>58</ele>
        <time>2022-02-28T10:12:34Z</time>
      </trkpt>
      <trkpt lat="47.20338" lon="-0.43231">
        <ele>58</ele>
        <time>2022-02-28T10:12:36Z</time>
      </trkpt>
      <trkpt lat="47.20313" lon="-0.43231">
        <ele>56</ele>
        <time>2022-02-28T10:12:40Z</time>
      </trkpt>
      <trkpt lat="47.20313" lon="-0.43225">
        <ele>56</ele>
        <time>2022-02-28T10:12:41Z</time>
      </trkpt>
      <trkpt lat="47.20307" lon="-0.43208">
        <ele>56</ele>
        <time>2022-02-28T10:12:43Z</time>
      </trkpt>
      <trkpt lat="47.20294" lon="-0.43193">
        <ele>56</ele>
        <time>2022-02-28T10:12:46Z</time>
      </trkpt>
      <trkpt lat="47.20277" lon="-0.43168">
        <ele>56</ele>
        <time>2022-02-28T10:12:50Z</time>
      </trkpt>
      <trkpt lat="47.20245" lon="-0.43114">
        <ele>57</ele>
        <time>2022-02-28T10:12:59Z</time>
      </trkpt>
      <trkpt lat="47.20202" lon="-0.43055">
        <ele>56</ele>
        <time>2022-02-28T10:13:09Z</time>
      </trkpt>
      <trkpt lat="47.20195" lon="-0.43049">
        <ele>56</ele>
        <time>2022-02-28T10:13:11Z</time>
      </trkpt>
      <trkpt lat="47.20127" lon="-0.43005">
        <ele>56</ele>
        <time>2022-02-28T10:13:24Z</time>
      </trkpt>
      <trkpt lat="47.20109" lon="-0.42987">
        <ele>56</ele>
        <time>2022-02-28T10:13:28Z</time>
      </trkpt>
      <trkpt lat="47.20104" lon="-0.42981">
        <ele>56</ele>
        <time>2022-02-28T10:13:29Z</time>
      </trkpt>
      <trkpt lat="47.20078" lon="-0.42933">
        <ele>58</ele>
        <time>2022-02-28T10:13:37Z</time>
      </trkpt>
      <trkpt lat="47.20067" lon="-0.42919">
        <ele>58</ele>
        <time>2022-02-28T10:13:39Z</time>
      </trkpt>
      <trkpt lat="47.20051" lon="-0.42908">
        <ele>59</ele>
        <time>2022-02-28T10:13:42Z</time>
      </trkpt>
      <trkpt lat="47.2002" lon="-0.429">
        <ele>59</ele>
        <time>2022-02-28T10:13:48Z</time>
      </trkpt>
      <trkpt lat="47.20014" lon="-0.42896">
        <ele>59</ele>
        <time>2022-02-28T10:13:49Z</time>
      </trkpt>
      <trkpt lat="47.2001" lon="-0.42894">
        <ele>59</ele>
        <time>2022-02-28T10:13:50Z</time>
      </trkpt>
      <trkpt lat="47.19971" lon="-0.42892">
        <ele>59</ele>
        <time>2022-02-28T10:13:57Z</time>
      </trkpt>
      <trkpt lat="47.19943" lon="-0.42886">
        <ele>59</ele>
        <time>2022-02-28T10:14:02Z</time>
      </trkpt>
      <trkpt lat="47.1989" lon="-0.42869">
        <ele>59</ele>
        <time>2022-02-28T10:14:11Z</time>
      </trkpt>
      <trkpt lat="47.19823" lon="-0.42827">
        <ele>60</ele>
        <time>2022-02-28T10:14:24Z</time>
      </trkpt>
      <trkpt lat="47.19593" lon="-0.42711">
        <ele>61</ele>
        <time>2022-02-28T10:15:08Z</time>
      </trkpt>
      <trkpt lat="47.1943" lon="-0.42671">
        <ele>60</ele>
        <time>2022-02-28T10:15:37Z</time>
      </trkpt>
      <trkpt lat="47.19321" lon="-0.42624">
        <ele>61</ele>
        <time>2022-02-28T10:15:57Z</time>
      </trkpt>
      <trkpt lat="47.1932" lon="-0.42614">
        <ele>61</ele>
        <time>2022-02-28T10:15:58Z</time>
      </trkpt>
      <trkpt lat="47.19312" lon="-0.42584">
        <ele>62</ele>
        <time>2022-02-28T10:16:02Z</time>
      </trkpt>
      <trkpt lat="47.19289" lon="-0.42367">
        <ele>60</ele>
        <time>2022-02-28T10:16:29Z</time>
      </trkpt>
      <trkpt lat="47.19272" lon="-0.42253">
        <ele>58</ele>
        <time>2022-02-28T10:16:43Z</time>
      </trkpt>
      <trkpt lat="47.19265" lon="-0.42228">
        <ele>57</ele>
        <time>2022-02-28T10:16:46Z</time>
      </trkpt>
      <trkpt lat="47.19247" lon="-0.42185">
        <ele>56</ele>
        <time>2022-02-28T10:16:52Z</time>
      </trkpt>
      <trkpt lat="47.19235" lon="-0.42165">
        <ele>55</ele>
        <time>2022-02-28T10:16:56Z</time>
      </trkpt>
      <trkpt lat="47.19214" lon="-0.42142">
        <ele>55</ele>
        <time>2022-02-28T10:17:00Z</time>
      </trkpt>
      <trkpt lat="47.19086" lon="-0.42032">
        <ele>57</ele>
        <time>2022-02-28T10:17:27Z</time>
      </trkpt>
      <trkpt lat="47.19054" lon="-0.42012">
        <ele>58</ele>
        <time>2022-02-28T10:17:33Z</time>
      </trkpt>
      <trkpt lat="47.18962" lon="-0.41972">
        <ele>58</ele>
        <time>2022-02-28T10:17:50Z</time>
      </trkpt>
      <trkpt lat="47.18929" lon="-0.41954">
        <ele>57</ele>
        <time>2022-02-28T10:17:56Z</time>
      </trkpt>
      <trkpt lat="47.18743" lon="-0.41827">
        <ele>60</ele>
        <time>2022-02-28T10:18:33Z</time>
      </trkpt>
      <trkpt lat="47.18641" lon="-0.41741">
        <ele>61</ele>
        <time>2022-02-28T10:18:54Z</time>
      </trkpt>
      <trkpt lat="47.18624" lon="-0.4173">
        <ele>61</ele>
        <time>2022-02-28T10:18:57Z</time>
      </trkpt>
      <trkpt lat="47.18594" lon="-0.41714">
        <ele>61</ele>
        <time>2022-02-28T10:19:03Z</time>
      </trkpt>
      <trkpt lat="47.1854" lon="-0.41691">
        <ele>61</ele>
        <time>2022-02-28T10:19:13Z</time>
      </trkpt>
      <trkpt lat="47.18393" lon="-0.41648">
        <ele>60</ele>
        <time>2022-02-28T10:19:39Z</time>
      </trkpt>
      <trkpt lat="47.18377" lon="-0.41639">
        <ele>60</ele>
        <time>2022-02-28T10:19:42Z</time>
      </trkpt>
      <trkpt lat="47.18363" lon="-0.41627">
        <ele>60</ele>
        <time>2022-02-28T10:19:45Z</time>
      </trkpt>
      <trkpt lat="47.18342" lon="-0.41601">
        <ele>60</ele>
        <time>2022-02-28T10:19:50Z</time>
      </trkpt>
      <trkpt lat="47.18322" lon="-0.4156">
        <ele>59</ele>
        <time>2022-02-28T10:19:56Z</time>
      </trkpt>
      <trkpt lat="47.18216" lon="-0.4126">
        <ele>55</ele>
        <time>2022-02-28T10:20:37Z</time>
      </trkpt>
      <trkpt lat="47.18212" lon="-0.4125">
        <ele>55</ele>
        <time>2022-02-28T10:20:38Z</time>
      </trkpt>
      <trkpt lat="47.18185" lon="-0.41182">
        <ele>58</ele>
        <time>2022-02-28T10:20:48Z</time>
      </trkpt>
      <trkpt lat="47.18172" lon="-0.41155">
        <ele>60</ele>
        <time>2022-02-28T10:20:52Z</time>
      </trkpt>
      <trkpt lat="47.18157" lon="-0.41137">
        <ele>61</ele>
        <time>2022-02-28T10:20:55Z</time>
      </trkpt>
      <trkpt lat="47.18142" lon="-0.41124">
        <ele>61</ele>
        <time>2022-02-28T10:20:58Z</time>
      </trkpt>
      <trkpt lat="47.18125" lon="-0.41113">
        <ele>61</ele>
        <time>2022-02-28T10:21:02Z</time>
      </trkpt>
      <trkpt lat="47.18091" lon="-0.41101">
        <ele>60</ele>
        <time>2022-02-28T10:21:08Z</time>
      </trkpt>
      <trkpt lat="47.18036" lon="-0.41099">
        <ele>58</ele>
        <time>2022-02-28T10:21:18Z</time>
      </trkpt>
      <trkpt lat="47.17848" lon="-0.41109">
        <ele>59</ele>
        <time>2022-02-28T10:21:51Z</time>
      </trkpt>
      <trkpt lat="47.1781" lon="-0.4111">
        <ele>60</ele>
        <time>2022-02-28T10:21:58Z</time>
      </trkpt>
      <trkpt lat="47.17648" lon="-0.41101">
        <ele>63</ele>
        <time>2022-02-28T10:22:27Z</time>
      </trkpt>
      <trkpt lat="47.17615" lon="-0.41101">
        <ele>63</ele>
        <time>2022-02-28T10:22:33Z</time>
      </trkpt>
      <trkpt lat="47.17607" lon="-0.41105">
        <ele>63</ele>
        <time>2022-02-28T10:22:34Z</time>
      </trkpt>
      <trkpt lat="47.17596" lon="-0.41086">
        <ele>63</ele>
        <time>2022-02-28T10:22:37Z</time>
      </trkpt>
      <trkpt lat="47.1755" lon="-0.40978">
        <ele>64</ele>
        <time>2022-02-28T10:22:53Z</time>
      </trkpt>
      <trkpt lat="47.1754" lon="-0.4096">
        <ele>63</ele>
        <time>2022-02-28T10:22:56Z</time>
      </trkpt>
      <trkpt lat="47.17504" lon="-0.40926">
        <ele>63</ele>
        <time>2022-02-28T10:23:03Z</time>
      </trkpt>
      <trkpt lat="47.17496" lon="-0.40921">
        <ele>63</ele>
        <time>2022-02-28T10:23:05Z</time>
      </trkpt>
      <trkpt lat="47.17456" lon="-0.40921">
        <ele>63</ele>
        <time>2022-02-28T10:23:12Z</time>
      </trkpt>
      <trkpt lat="47.17417" lon="-0.40914">
        <ele>63</ele>
        <time>2022-02-28T10:23:19Z</time>
      </trkpt>
      <trkpt lat="47.17399" lon="-0.40914">
        <ele>63</ele>
        <time>2022-02-28T10:23:22Z</time>
      </trkpt>
      <trkpt lat="47.17357" lon="-0.40926">
        <ele>63</ele>
        <time>2022-02-28T10:23:30Z</time>
      </trkpt>
      <trkpt lat="47.17313" lon="-0.40944">
        <ele>63</ele>
        <time>2022-02-28T10:23:38Z</time>
      </trkpt>
      <trkpt lat="47.17292" lon="-0.40955">
        <ele>63</ele>
        <time>2022-02-28T10:23:42Z</time>
      </trkpt>
      <trkpt lat="47.17286" lon="-0.40949">
        <ele>63</ele>
        <time>2022-02-28T10:23:43Z</time>
      </trkpt>
      <trkpt lat="47.17278" lon="-0.40945">
        <ele>63</ele>
        <time>2022-02-28T10:23:44Z</time>
      </trkpt>
      <trkpt lat="47.17224" lon="-0.40904">
        <ele>61</ele>
        <time>2022-02-28T10:23:55Z</time>
      </trkpt>
      <trkpt lat="47.17202" lon="-0.40893">
        <ele>61</ele>
        <time>2022-02-28T10:23:59Z</time>
      </trkpt>
      <trkpt lat="47.17075" lon="-0.40847">
        <ele>62</ele>
        <time>2022-02-28T10:24:23Z</time>
      </trkpt>
      <trkpt lat="47.17055" lon="-0.40836">
        <ele>63</ele>
        <time>2022-02-28T10:24:26Z</time>
      </trkpt>
      <trkpt lat="47.16977" lon="-0.40775">
        <ele>63</ele>
        <time>2022-02-28T10:24:42Z</time>
      </trkpt>
      <trkpt lat="47.16843" lon="-0.40694">
        <ele>64</ele>
        <time>2022-02-28T10:25:08Z</time>
      </trkpt>
      <trkpt lat="47.16826" lon="-0.40677">
        <ele>64</ele>
        <time>2022-02-28T10:25:12Z</time>
      </trkpt>
      <trkpt lat="47.16812" lon="-0.40658">
        <ele>64</ele>
        <time>2022-02-28T10:25:15Z</time>
      </trkpt>
      <trkpt lat="47.16655" lon="-0.40384">
        <ele>65</ele>
        <time>2022-02-28T10:25:58Z</time>
      </trkpt>
      <trkpt lat="47.16641" lon="-0.40369">
        <ele>65</ele>
        <time>2022-02-28T10:26:01Z</time>
      </trkpt>
      <trkpt lat="47.16603" lon="-0.40346">
        <ele>66</ele>
        <time>2022-02-28T10:26:09Z</time>
      </trkpt>
      <trkpt lat="47.16588" lon="-0.40341">
        <ele>66</ele>
        <time>2022-02-28T10:26:12Z</time>
      </trkpt>
      <trkpt lat="47.16575" lon="-0.4034">
        <ele>67</ele>
        <time>2022-02-28T10:26:14Z</time>
      </trkpt>
      <trkpt lat="47.1655" lon="-0.4035">
        <ele>68</ele>
        <time>2022-02-28T10:26:18Z</time>
      </trkpt>
      <trkpt lat="47.16536" lon="-0.4035">
        <ele>68</ele>
        <time>2022-02-28T10:26:21Z</time>
      </trkpt>
      <trkpt lat="47.16511" lon="-0.40343">
        <ele>69</ele>
        <time>2022-02-28T10:26:25Z</time>
      </trkpt>
      <trkpt lat="47.1649" lon="-0.40342">
        <ele>69</ele>
        <time>2022-02-28T10:26:29Z</time>
      </trkpt>
      <trkpt lat="47.16464" lon="-0.40353">
        <ele>70</ele>
        <time>2022-02-28T10:26:34Z</time>
      </trkpt>
      <trkpt lat="47.16434" lon="-0.40374">
        <ele>71</ele>
        <time>2022-02-28T10:26:40Z</time>
      </trkpt>
      <trkpt lat="47.16424" lon="-0.40378">
        <ele>71</ele>
        <time>2022-02-28T10:26:42Z</time>
      </trkpt>
      <trkpt lat="47.16414" lon="-0.40377">
        <ele>71</ele>
        <time>2022-02-28T10:26:44Z</time>
      </trkpt>
      <trkpt lat="47.16376" lon="-0.40342">
        <ele>72</ele>
        <time>2022-02-28T10:26:52Z</time>
      </trkpt>
      <trkpt lat="47.16363" lon="-0.40333">
        <ele>72</ele>
        <time>2022-02-28T10:26:54Z</time>
      </trkpt>
      <trkpt lat="47.16281" lon="-0.40282">
        <ele>71</ele>
        <time>2022-02-28T10:27:10Z</time>
      </trkpt>
      <trkpt lat="47.16259" lon="-0.40264">
        <ele>71</ele>
        <time>2022-02-28T10:27:14Z</time>
      </trkpt>
      <trkpt lat="47.16193" lon="-0.402">
        <ele>69</ele>
        <time>2022-02-28T10:27:28Z</time>
      </trkpt>
      <trkpt lat="47.16158" lon="-0.40161">
        <ele>67</ele>
        <time>2022-02-28T10:27:36Z</time>
      </trkpt>
      <trkpt lat="47.16114" lon="-0.401">
        <ele>68</ele>
        <time>2022-02-28T10:27:47Z</time>
      </trkpt>
      <trkpt lat="47.16095" lon="-0.4007">
        <ele>68</ele>
        <time>2022-02-28T10:27:52Z</time>
      </trkpt>
      <trkpt lat="47.16074" lon="-0.40053">
        <ele>69</ele>
        <time>2022-02-28T10:27:56Z</time>
      </trkpt>
      <trkpt lat="47.16005" lon="-0.39987">
        <ele>69</ele>
        <time>2022-02-28T10:28:11Z</time>
      </trkpt>
      <trkpt lat="47.15974" lon="-0.39964">
        <ele>70</ele>
        <time>2022-02-28T10:28:17Z</time>
      </trkpt>
      <trkpt lat="47.15954" lon="-0.39958">
        <ele>71</ele>
        <time>2022-02-28T10:28:21Z</time>
      </trkpt>
      <trkpt lat="47.15933" lon="-0.39958">
        <ele>71</ele>
        <time>2022-02-28T10:28:24Z</time>
      </trkpt>
      <trkpt lat="47.15907" lon="-0.39959">
        <ele>72</ele>
        <time>2022-02-28T10:28:29Z</time>
      </trkpt>
      <trkpt lat="47.15875" lon="-0.39965">
        <ele>73</ele>
        <time>2022-02-28T10:28:35Z</time>
      </trkpt>
      <trkpt lat="47.15861" lon="-0.3997">
        <ele>74</ele>
        <time>2022-02-28T10:28:37Z</time>
      </trkpt>
      <trkpt lat="47.1583" lon="-0.3999">
        <ele>75</ele>
        <time>2022-02-28T10:28:43Z</time>
      </trkpt>
      <trkpt lat="47.15783" lon="-0.40014">
        <ele>77</ele>
        <time>2022-02-28T10:28:52Z</time>
      </trkpt>
      <trkpt lat="47.1576" lon="-0.40021">
        <ele>78</ele>
        <time>2022-02-28T10:28:56Z</time>
      </trkpt>
      <trkpt lat="47.15707" lon="-0.40029">
        <ele>81</ele>
        <time>2022-02-28T10:29:06Z</time>
      </trkpt>
      <trkpt lat="47.15678" lon="-0.4003">
        <ele>83</ele>
        <time>2022-02-28T10:29:11Z</time>
      </trkpt>
      <trkpt lat="47.15602" lon="-0.40029">
        <ele>89</ele>
        <time>2022-02-28T10:29:25Z</time>
      </trkpt>
      <trkpt lat="47.15543" lon="-0.40032">
        <ele>91</ele>
        <time>2022-02-28T10:29:35Z</time>
      </trkpt>
      <trkpt lat="47.15439" lon="-0.40016">
        <ele>89</ele>
        <time>2022-02-28T10:29:54Z</time>
      </trkpt>
      <trkpt lat="47.1537" lon="-0.40002">
        <ele>84</ele>
        <time>2022-02-28T10:30:06Z</time>
      </trkpt>
      <trkpt lat="47.15353" lon="-0.39988">
        <ele>82</ele>
        <time>2022-02-28T10:30:10Z</time>
      </trkpt>
      <trkpt lat="47.1529" lon="-0.39872">
        <ele>80</ele>
        <time>2022-02-28T10:30:28Z</time>
      </trkpt>
      <trkpt lat="47.15263" lon="-0.3983">
        <ele>81</ele>
        <time>2022-02-28T10:30:35Z</time>
      </trkpt>
      <trkpt lat="47.15184" lon="-0.39753">
        <ele>84</ele>
        <time>2022-02-28T10:30:51Z</time>
      </trkpt>
      <trkpt lat="47.15158" lon="-0.39731">
        <ele>84</ele>
        <time>2022-02-28T10:30:57Z</time>
      </trkpt>
      <trkpt lat="47.15144" lon="-0.39722">
        <ele>83</ele>
        <time>2022-02-28T10:30:59Z</time>
      </trkpt>
      <trkpt lat="47.15029" lon="-0.39667">
        <ele>78</ele>
        <time>2022-02-28T10:31:21Z</time>
      </trkpt>
      <trkpt lat="47.14956" lon="-0.39606">
        <ele>72</ele>
        <time>2022-02-28T10:31:36Z</time>
      </trkpt>
      <trkpt lat="47.14927" lon="-0.39586">
        <ele>71</ele>
        <time>2022-02-28T10:31:42Z</time>
      </trkpt>
      <trkpt lat="47.14877" lon="-0.39566">
        <ele>69</ele>
        <time>2022-02-28T10:31:51Z</time>
      </trkpt>
      <trkpt lat="47.14858" lon="-0.39552">
        <ele>69</ele>
        <time>2022-02-28T10:31:55Z</time>
      </trkpt>
      <trkpt lat="47.14774" lon="-0.39463">
        <ele>76</ele>
        <time>2022-02-28T10:32:13Z</time>
      </trkpt>
      <trkpt lat="47.14726" lon="-0.39407">
        <ele>81</ele>
        <time>2022-02-28T10:32:24Z</time>
      </trkpt>
      <trkpt lat="47.14706" lon="-0.3939">
        <ele>82</ele>
        <time>2022-02-28T10:32:28Z</time>
      </trkpt>
      <trkpt lat="47.14689" lon="-0.3938">
        <ele>83</ele>
        <time>2022-02-28T10:32:31Z</time>
      </trkpt>
      <trkpt lat="47.14663" lon="-0.39373">
        <ele>84</ele>
        <time>2022-02-28T10:32:36Z</time>
      </trkpt>
      <trkpt lat="47.14615" lon="-0.39369">
        <ele>86</ele>
        <time>2022-02-28T10:32:45Z</time>
      </trkpt>
      <trkpt lat="47.14551" lon="-0.39368">
        <ele>89</ele>
        <time>2022-02-28T10:32:56Z</time>
      </trkpt>
      <trkpt lat="47.1449" lon="-0.39376">
        <ele>91</ele>
        <time>2022-02-28T10:33:07Z</time>
      </trkpt>
      <trkpt lat="47.14331" lon="-0.39409">
        <ele>92</ele>
        <time>2022-02-28T10:33:35Z</time>
      </trkpt>
      <trkpt lat="47.14303" lon="-0.39417">
        <ele>93</ele>
        <time>2022-02-28T10:33:40Z</time>
      </trkpt>
      <trkpt lat="47.14162" lon="-0.39505">
        <ele>94</ele>
        <time>2022-02-28T10:34:08Z</time>
      </trkpt>
      <trkpt lat="47.14139" lon="-0.39512">
        <ele>94</ele>
        <time>2022-02-28T10:34:12Z</time>
      </trkpt>
      <trkpt lat="47.14106" lon="-0.39514">
        <ele>93</ele>
        <time>2022-02-28T10:34:18Z</time>
      </trkpt>
      <trkpt lat="47.1394" lon="-0.39497">
        <ele>92</ele>
        <time>2022-02-28T10:34:47Z</time>
      </trkpt>
      <trkpt lat="47.13913" lon="-0.39501">
        <ele>91</ele>
        <time>2022-02-28T10:34:52Z</time>
      </trkpt>
      <trkpt lat="47.13875" lon="-0.39523">
        <ele>92</ele>
        <time>2022-02-28T10:34:59Z</time>
      </trkpt>
      <trkpt lat="47.13742" lon="-0.39616">
        <ele>93</ele>
        <time>2022-02-28T10:35:26Z</time>
      </trkpt>
      <trkpt lat="47.13696" lon="-0.39652">
        <ele>94</ele>
        <time>2022-02-28T10:35:35Z</time>
      </trkpt>
      <trkpt lat="47.13632" lon="-0.39716">
        <ele>95</ele>
        <time>2022-02-28T10:35:49Z</time>
      </trkpt>
      <trkpt lat="47.13562" lon="-0.3976">
        <ele>96</ele>
        <time>2022-02-28T10:36:02Z</time>
      </trkpt>
      <trkpt lat="47.13467" lon="-0.39824">
        <ele>96</ele>
        <time>2022-02-28T10:36:21Z</time>
      </trkpt>
      <trkpt lat="47.1345" lon="-0.39833">
        <ele>97</ele>
        <time>2022-02-28T10:36:24Z</time>
      </trkpt>
      <trkpt lat="47.13441" lon="-0.39742">
        <ele>98</ele>
        <time>2022-02-28T10:36:35Z</time>
      </trkpt>
      <trkpt lat="47.13435" lon="-0.39708">
        <ele>98</ele>
        <time>2022-02-28T10:36:39Z</time>
      </trkpt>
      <trkpt lat="47.13427" lon="-0.39682">
        <ele>98</ele>
        <time>2022-02-28T10:36:43Z</time>
      </trkpt>
      <trkpt lat="47.13417" lon="-0.39661">
        <ele>98</ele>
        <time>2022-02-28T10:36:46Z</time>
      </trkpt>
      <trkpt lat="47.13402" lon="-0.39639">
        <ele>97</ele>
        <time>2022-02-28T10:36:50Z</time>
      </trkpt>
      <trkpt lat="47.13339" lon="-0.39564">
        <ele>95</ele>
        <time>2022-02-28T10:37:04Z</time>
      </trkpt>
      <trkpt lat="47.13303" lon="-0.39515">
        <ele>94</ele>
        <time>2022-02-28T10:37:13Z</time>
      </trkpt>
      <trkpt lat="47.13201" lon="-0.39601">
        <ele>99</ele>
        <time>2022-02-28T10:37:34Z</time>
      </trkpt>
      <trkpt lat="47.13087" lon="-0.39688">
        <ele>100</ele>
        <time>2022-02-28T10:37:57Z</time>
      </trkpt>
      <trkpt lat="47.13078" lon="-0.39699">
        <ele>101</ele>
        <time>2022-02-28T10:37:59Z</time>
      </trkpt>
      <trkpt lat="47.12917" lon="-0.40021">
        <ele>106</ele>
        <time>2022-02-28T10:38:47Z</time>
      </trkpt>
      <trkpt lat="47.1291" lon="-0.40025">
        <ele>106</ele>
        <time>2022-02-28T10:38:49Z</time>
      </trkpt>
      <trkpt lat="47.12894" lon="-0.40029">
        <ele>105</ele>
        <time>2022-02-28T10:38:51Z</time>
      </trkpt>
      <trkpt lat="47.12837" lon="-0.40027">
        <ele>102</ele>
        <time>2022-02-28T10:39:02Z</time>
      </trkpt>
      <trkpt lat="47.12808" lon="-0.40021">
        <ele>100</ele>
        <time>2022-02-28T10:39:07Z</time>
      </trkpt>
      <trkpt lat="47.12745" lon="-0.4">
        <ele>95</ele>
        <time>2022-02-28T10:39:18Z</time>
      </trkpt>
      <trkpt lat="47.12701" lon="-0.39977">
        <ele>93</ele>
        <time>2022-02-28T10:39:27Z</time>
      </trkpt>
      <trkpt lat="47.12657" lon="-0.3995">
        <ele>91</ele>
        <time>2022-02-28T10:39:35Z</time>
      </trkpt>
      <trkpt lat="47.1264" lon="-0.39942">
        <ele>92</ele>
        <time>2022-02-28T10:39:38Z</time>
      </trkpt>
      <trkpt lat="47.12602" lon="-0.39938">
        <ele>92</ele>
        <time>2022-02-28T10:39:45Z</time>
      </trkpt>
      <trkpt lat="47.12585" lon="-0.39941">
        <ele>92</ele>
        <time>2022-02-28T10:39:48Z</time>
      </trkpt>
      <trkpt lat="47.1252" lon="-0.39983">
        <ele>95</ele>
        <time>2022-02-28T10:40:01Z</time>
      </trkpt>
      <trkpt lat="47.12427" lon="-0.40016">
        <ele>97</ele>
        <time>2022-02-28T10:40:18Z</time>
      </trkpt>
      <trkpt lat="47.12377" lon="-0.40021">
        <ele>99</ele>
        <time>2022-02-28T10:40:27Z</time>
      </trkpt>
      <trkpt lat="47.12348" lon="-0.4002">
        <ele>99</ele>
        <time>2022-02-28T10:40:32Z</time>
      </trkpt>
      <trkpt lat="47.12254" lon="-0.39994">
        <ele>100</ele>
        <time>2022-02-28T10:40:49Z</time>
      </trkpt>
      <trkpt lat="47.122" lon="-0.39974">
        <ele>102</ele>
        <time>2022-02-28T10:40:59Z</time>
      </trkpt>
      <trkpt lat="47.1219" lon="-0.39968">
        <ele>102</ele>
        <time>2022-02-28T10:41:01Z</time>
      </trkpt>
      <trkpt lat="47.12112" lon="-0.39909">
        <ele>103</ele>
        <time>2022-02-28T10:41:16Z</time>
      </trkpt>
      <trkpt lat="47.12071" lon="-0.39873">
        <ele>105</ele>
        <time>2022-02-28T10:41:25Z</time>
      </trkpt>
      <trkpt lat="47.12002" lon="-0.39801">
        <ele>107</ele>
        <time>2022-02-28T10:41:40Z</time>
      </trkpt>
      <trkpt lat="47.1196" lon="-0.3975">
        <ele>107</ele>
        <time>2022-02-28T10:41:50Z</time>
      </trkpt>
      <trkpt lat="47.11937" lon="-0.39725">
        <ele>106</ele>
        <time>2022-02-28T10:41:55Z</time>
      </trkpt>
      <trkpt lat="47.11916" lon="-0.39707">
        <ele>106</ele>
        <time>2022-02-28T10:41:59Z</time>
      </trkpt>
      <trkpt lat="47.11862" lon="-0.39672">
        <ele>107</ele>
        <time>2022-02-28T10:42:09Z</time>
      </trkpt>
      <trkpt lat="47.11843" lon="-0.39664">
        <ele>108</ele>
        <time>2022-02-28T10:42:13Z</time>
      </trkpt>
      <trkpt lat="47.11811" lon="-0.39657">
        <ele>108</ele>
        <time>2022-02-28T10:42:19Z</time>
      </trkpt>
      <trkpt lat="47.11699" lon="-0.39643">
        <ele>107</ele>
        <time>2022-02-28T10:42:39Z</time>
      </trkpt>
      <trkpt lat="47.11685" lon="-0.39637">
        <ele>107</ele>
        <time>2022-02-28T10:42:41Z</time>
      </trkpt>
      <trkpt lat="47.11672" lon="-0.39627">
        <ele>107</ele>
        <time>2022-02-28T10:42:44Z</time>
      </trkpt>
      <trkpt lat="47.11603" lon="-0.39561">
        <ele>107</ele>
        <time>2022-02-28T10:42:59Z</time>
      </trkpt>
      <trkpt lat="47.1156" lon="-0.39511">
        <ele>106</ele>
        <time>2022-02-28T10:43:08Z</time>
      </trkpt>
      <trkpt lat="47.11531" lon="-0.39484">
        <ele>105</ele>
        <time>2022-02-28T10:43:14Z</time>
      </trkpt>
      <trkpt lat="47.11468" lon="-0.39435">
        <ele>104</ele>
        <time>2022-02-28T10:43:27Z</time>
      </trkpt>
      <trkpt lat="47.11444" lon="-0.3942">
        <ele>104</ele>
        <time>2022-02-28T10:43:32Z</time>
      </trkpt>
      <trkpt lat="47.11223" lon="-0.39306">
        <ele>101</ele>
        <time>2022-02-28T10:44:13Z</time>
      </trkpt>
      <trkpt lat="47.11043" lon="-0.39209">
        <ele>100</ele>
        <time>2022-02-28T10:44:48Z</time>
      </trkpt>
      <trkpt lat="47.11015" lon="-0.39174">
        <ele>99</ele>
        <time>2022-02-28T10:44:54Z</time>
      </trkpt>
      <trkpt lat="47.10905" lon="-0.39056">
        <ele>98</ele>
        <time>2022-02-28T10:45:18Z</time>
      </trkpt>
      <trkpt lat="47.10877" lon="-0.39045">
        <ele>97</ele>
        <time>2022-02-28T10:45:23Z</time>
      </trkpt>
      <trkpt lat="47.10837" lon="-0.39041">
        <ele>97</ele>
        <time>2022-02-28T10:45:31Z</time>
      </trkpt>
      <trkpt lat="47.10799" lon="-0.3904">
        <ele>96</ele>
        <time>2022-02-28T10:45:37Z</time>
      </trkpt>
      <trkpt lat="47.10762" lon="-0.39031">
        <ele>95</ele>
        <time>2022-02-28T10:45:44Z</time>
      </trkpt>
      <trkpt lat="47.1075" lon="-0.39031">
        <ele>95</ele>
        <time>2022-02-28T10:45:46Z</time>
      </trkpt>
      <trkpt lat="47.10733" lon="-0.39023">
        <ele>94</ele>
        <time>2022-02-28T10:45:49Z</time>
      </trkpt>
      <trkpt lat="47.10678" lon="-0.38973">
        <ele>91</ele>
        <time>2022-02-28T10:46:01Z</time>
      </trkpt>
      <trkpt lat="47.10671" lon="-0.38967">
        <ele>90</ele>
        <time>2022-02-28T10:46:02Z</time>
      </trkpt>
      <trkpt lat="47.10666" lon="-0.38966">
        <ele>90</ele>
        <time>2022-02-28T10:46:03Z</time>
      </trkpt>
      <trkpt lat="47.10664" lon="-0.38962">
        <ele>90</ele>
        <time>2022-02-28T10:46:04Z</time>
      </trkpt>
      <trkpt lat="47.10653" lon="-0.38955">
        <ele>89</ele>
        <time>2022-02-28T10:46:06Z</time>
      </trkpt>
      <trkpt lat="47.10623" lon="-0.38952">
        <ele>85</ele>
        <time>2022-02-28T10:46:11Z</time>
      </trkpt>
      <trkpt lat="47.10615" lon="-0.38947">
        <ele>84</ele>
        <time>2022-02-28T10:46:13Z</time>
      </trkpt>
      <trkpt lat="47.10589" lon="-0.38907">
        <ele>79</ele>
        <time>2022-02-28T10:46:20Z</time>
      </trkpt>
      <trkpt lat="47.10581" lon="-0.389">
        <ele>78</ele>
        <time>2022-02-28T10:46:21Z</time>
      </trkpt>
      <trkpt lat="47.10577" lon="-0.38909">
        <ele>78</ele>
        <time>2022-02-28T10:46:22Z</time>
      </trkpt>
      <trkpt lat="47.10568" lon="-0.38923">
        <ele>79</ele>
        <time>2022-02-28T10:46:25Z</time>
      </trkpt>
      <trkpt lat="47.1056" lon="-0.38931">
        <ele>79</ele>
        <time>2022-02-28T10:46:27Z</time>
      </trkpt>
      <trkpt lat="47.10544" lon="-0.3884">
        <ele>72</ele>
        <time>2022-02-28T10:46:38Z</time>
      </trkpt>
      <trkpt lat="47.10536" lon="-0.38809">
        <ele>70</ele>
        <time>2022-02-28T10:46:42Z</time>
      </trkpt>
      <trkpt lat="47.10528" lon="-0.3879">
        <ele>69</ele>
        <time>2022-02-28T10:46:45Z</time>
      </trkpt>
      <trkpt lat="47.1052" lon="-0.3878">
        <ele>69</ele>
        <time>2022-02-28T10:46:47Z</time>
      </trkpt>
      <trkpt lat="47.10498" lon="-0.38757">
        <ele>67</ele>
        <time>2022-02-28T10:46:51Z</time>
      </trkpt>
      <trkpt lat="47.10465" lon="-0.38726">
        <ele>70</ele>
        <time>2022-02-28T10:46:58Z</time>
      </trkpt>
      <trkpt lat="47.10448" lon="-0.38715">
        <ele>71</ele>
        <time>2022-02-28T10:47:02Z</time>
      </trkpt>
      <trkpt lat="47.10432" lon="-0.38708">
        <ele>73</ele>
        <time>2022-02-28T10:47:05Z</time>
      </trkpt>
      <trkpt lat="47.10414" lon="-0.38708">
        <ele>74</ele>
        <time>2022-02-28T10:47:08Z</time>
      </trkpt>
      <trkpt lat="47.104" lon="-0.38711">
        <ele>75</ele>
        <time>2022-02-28T10:47:10Z</time>
      </trkpt>
      <trkpt lat="47.10385" lon="-0.38721">
        <ele>76</ele>
        <time>2022-02-28T10:47:13Z</time>
      </trkpt>
      <trkpt lat="47.10375" lon="-0.38732">
        <ele>77</ele>
        <time>2022-02-28T10:47:15Z</time>
      </trkpt>
      <trkpt lat="47.10369" lon="-0.38745">
        <ele>78</ele>
        <time>2022-02-28T10:47:17Z</time>
      </trkpt>
      <trkpt lat="47.10348" lon="-0.38821">
        <ele>77</ele>
        <time>2022-02-28T10:47:27Z</time>
      </trkpt>
      <trkpt lat="47.10339" lon="-0.38835">
        <ele>77</ele>
        <time>2022-02-28T10:47:30Z</time>
      </trkpt>
      <trkpt lat="47.10327" lon="-0.38841">
        <ele>78</ele>
        <time>2022-02-28T10:47:32Z</time>
      </trkpt>
      <trkpt lat="47.10314" lon="-0.38839">
        <ele>79</ele>
        <time>2022-02-28T10:47:34Z</time>
      </trkpt>
      <trkpt lat="47.10298" lon="-0.38828">
        <ele>80</ele>
        <time>2022-02-28T10:47:37Z</time>
      </trkpt>
      <trkpt lat="47.1022" lon="-0.38765">
        <ele>86</ele>
        <time>2022-02-28T10:47:53Z</time>
      </trkpt>
      <trkpt lat="47.10203" lon="-0.38754">
        <ele>87</ele>
        <time>2022-02-28T10:47:56Z</time>
      </trkpt>
      <trkpt lat="47.10169" lon="-0.38746">
        <ele>89</ele>
        <time>2022-02-28T10:48:03Z</time>
      </trkpt>
      <trkpt lat="47.1013" lon="-0.38743">
        <ele>90</ele>
        <time>2022-02-28T10:48:10Z</time>
      </trkpt>
      <trkpt lat="47.10103" lon="-0.38746">
        <ele>91</ele>
        <time>2022-02-28T10:48:14Z</time>
      </trkpt>
      <trkpt lat="47.10077" lon="-0.38741">
        <ele>92</ele>
        <time>2022-02-28T10:48:19Z</time>
      </trkpt>
      <trkpt lat="47.10025" lon="-0.38721">
        <ele>95</ele>
        <time>2022-02-28T10:48:29Z</time>
      </trkpt>
      <trkpt lat="47.09805" lon="-0.38627">
        <ele>100</ele>
        <time>2022-02-28T10:49:09Z</time>
      </trkpt>
      <trkpt lat="47.09792" lon="-0.38626">
        <ele>100</ele>
        <time>2022-02-28T10:49:12Z</time>
      </trkpt>
      <trkpt lat="47.09781" lon="-0.38633">
        <ele>100</ele>
        <time>2022-02-28T10:49:14Z</time>
      </trkpt>
      <trkpt lat="47.09759" lon="-0.38654">
        <ele>101</ele>
        <time>2022-02-28T10:49:18Z</time>
      </trkpt>
      <trkpt lat="47.09696" lon="-0.38724">
        <ele>102</ele>
        <time>2022-02-28T10:49:33Z</time>
      </trkpt>
      <trkpt lat="47.09677" lon="-0.38738">
        <ele>103</ele>
        <time>2022-02-28T10:49:36Z</time>
      </trkpt>
      <trkpt lat="47.09648" lon="-0.38749">
        <ele>103</ele>
        <time>2022-02-28T10:49:42Z</time>
      </trkpt>
      <trkpt lat="47.09562" lon="-0.38762">
        <ele>105</ele>
        <time>2022-02-28T10:49:57Z</time>
      </trkpt>
      <trkpt lat="47.09509" lon="-0.38774">
        <ele>107</ele>
        <time>2022-02-28T10:50:07Z</time>
      </trkpt>
      <trkpt lat="47.09487" lon="-0.38776">
        <ele>107</ele>
        <time>2022-02-28T10:50:10Z</time>
      </trkpt>
      <trkpt lat="47.09463" lon="-0.38773">
        <ele>108</ele>
        <time>2022-02-28T10:50:15Z</time>
      </trkpt>
      <trkpt lat="47.09291" lon="-0.38725">
        <ele>108</ele>
        <time>2022-02-28T10:50:46Z</time>
      </trkpt>
      <trkpt lat="47.09158" lon="-0.38698">
        <ele>107</ele>
        <time>2022-02-28T10:51:10Z</time>
      </trkpt>
      <trkpt lat="47.09107" lon="-0.38697">
        <ele>106</ele>
        <time>2022-02-28T10:51:19Z</time>
      </trkpt>
      <trkpt lat="47.09084" lon="-0.387">
        <ele>105</ele>
        <time>2022-02-28T10:51:23Z</time>
      </trkpt>
      <trkpt lat="47.09017" lon="-0.38716">
        <ele>104</ele>
        <time>2022-02-28T10:51:35Z</time>
      </trkpt>
      <trkpt lat="47.08978" lon="-0.38715">
        <ele>103</ele>
        <time>2022-02-28T10:51:42Z</time>
      </trkpt>
      <trkpt lat="47.08947" lon="-0.38711">
        <ele>103</ele>
        <time>2022-02-28T10:51:48Z</time>
      </trkpt>
      <trkpt lat="47.08915" lon="-0.38702">
        <ele>102</ele>
        <time>2022-02-28T10:51:53Z</time>
      </trkpt>
      <trkpt lat="47.08839" lon="-0.38665">
        <ele>102</ele>
        <time>2022-02-28T10:52:08Z</time>
      </trkpt>
      <trkpt lat="47.08796" lon="-0.3865">
        <ele>101</ele>
        <time>2022-02-28T10:52:15Z</time>
      </trkpt>
      <trkpt lat="47.08734" lon="-0.38636">
        <ele>100</ele>
        <time>2022-02-28T10:52:27Z</time>
      </trkpt>
      <trkpt lat="47.08668" lon="-0.38623">
        <ele>100</ele>
        <time>2022-02-28T10:52:38Z</time>
      </trkpt>
      <trkpt lat="47.08503" lon="-0.38571">
        <ele>95</ele>
        <time>2022-02-28T10:53:08Z</time>
      </trkpt>
      <trkpt lat="47.08385" lon="-0.38527">
        <ele>94</ele>
        <time>2022-02-28T10:53:30Z</time>
      </trkpt>
      <trkpt lat="47.0836" lon="-0.38521">
        <ele>94</ele>
        <time>2022-02-28T10:53:35Z</time>
      </trkpt>
      <trkpt lat="47.08284" lon="-0.38522">
        <ele>95</ele>
        <time>2022-02-28T10:53:48Z</time>
      </trkpt>
      <trkpt lat="47.08258" lon="-0.3852">
        <ele>95</ele>
        <time>2022-02-28T10:53:53Z</time>
      </trkpt>
      <trkpt lat="47.08197" lon="-0.38511">
        <ele>96</ele>
        <time>2022-02-28T10:54:04Z</time>
      </trkpt>
      <trkpt lat="47.08143" lon="-0.385">
        <ele>97</ele>
        <time>2022-02-28T10:54:13Z</time>
      </trkpt>
      <trkpt lat="47.08116" lon="-0.38488">
        <ele>98</ele>
        <time>2022-02-28T10:54:18Z</time>
      </trkpt>
      <trkpt lat="47.08082" lon="-0.3847">
        <ele>98</ele>
        <time>2022-02-28T10:54:25Z</time>
      </trkpt>
      <trkpt lat="47.08051" lon="-0.38457">
        <ele>97</ele>
        <time>2022-02-28T10:54:31Z</time>
      </trkpt>
      <trkpt lat="47.0803" lon="-0.38453">
        <ele>97</ele>
        <time>2022-02-28T10:54:34Z</time>
      </trkpt>
      <trkpt lat="47.08018" lon="-0.38459">
        <ele>96</ele>
        <time>2022-02-28T10:54:37Z</time>
      </trkpt>
      <trkpt lat="47.07908" lon="-0.3857">
        <ele>95</ele>
        <time>2022-02-28T10:55:00Z</time>
      </trkpt>
      <trkpt lat="47.07837" lon="-0.38631">
        <ele>94</ele>
        <time>2022-02-28T10:55:15Z</time>
      </trkpt>
      <trkpt lat="47.07756" lon="-0.38674">
        <ele>94</ele>
        <time>2022-02-28T10:55:30Z</time>
      </trkpt>
      <trkpt lat="47.07739" lon="-0.38686">
        <ele>93</ele>
        <time>2022-02-28T10:55:34Z</time>
      </trkpt>
      <trkpt lat="47.0768" lon="-0.38754">
        <ele>92</ele>
        <time>2022-02-28T10:55:47Z</time>
      </trkpt>
      <trkpt lat="47.07615" lon="-0.38809">
        <ele>91</ele>
        <time>2022-02-28T10:56:00Z</time>
      </trkpt>
      <trkpt lat="47.0757" lon="-0.38867">
        <ele>91</ele>
        <time>2022-02-28T10:56:11Z</time>
      </trkpt>
      <trkpt lat="47.07461" lon="-0.38993">
        <ele>92</ele>
        <time>2022-02-28T10:56:36Z</time>
      </trkpt>
      <trkpt lat="47.07431" lon="-0.39026">
        <ele>91</ele>
        <time>2022-02-28T10:56:42Z</time>
      </trkpt>
      <trkpt lat="47.07389" lon="-0.39063">
        <ele>92</ele>
        <time>2022-02-28T10:56:51Z</time>
      </trkpt>
      <trkpt lat="47.07287" lon="-0.38919">
        <ele>89</ele>
        <time>2022-02-28T10:57:16Z</time>
      </trkpt>
      <trkpt lat="47.07263" lon="-0.38879">
        <ele>88</ele>
        <time>2022-02-28T10:57:23Z</time>
      </trkpt>
      <trkpt lat="47.07061" lon="-0.38471">
        <ele>84</ele>
        <time>2022-02-28T10:58:24Z</time>
      </trkpt>
      <trkpt lat="47.07043" lon="-0.38432">
        <ele>82</ele>
        <time>2022-02-28T10:58:30Z</time>
      </trkpt>
      <trkpt lat="47.07031" lon="-0.384">
        <ele>82</ele>
        <time>2022-02-28T10:58:34Z</time>
      </trkpt>
      <trkpt lat="47.07019" lon="-0.3836">
        <ele>83</ele>
        <time>2022-02-28T10:58:39Z</time>
      </trkpt>
      <trkpt lat="47.07011" lon="-0.38316">
        <ele>83</ele>
        <time>2022-02-28T10:58:45Z</time>
      </trkpt>
      <trkpt lat="47.07002" lon="-0.38221">
        <ele>81</ele>
        <time>2022-02-28T10:58:56Z</time>
      </trkpt>
      <trkpt lat="47.06993" lon="-0.38227">
        <ele>81</ele>
        <time>2022-02-28T10:58:58Z</time>
      </trkpt>
      <trkpt lat="47.06871" lon="-0.38483">
        <ele>87</ele>
        <time>2022-02-28T10:59:36Z</time>
      </trkpt>
      <trkpt lat="47.06693" lon="-0.3879">
        <ele>91</ele>
        <time>2022-02-28T11:00:25Z</time>
      </trkpt>
      <trkpt lat="47.06632" lon="-0.38885">
        <ele>90</ele>
        <time>2022-02-28T11:00:41Z</time>
      </trkpt>
      <trkpt lat="47.06608" lon="-0.38927">
        <ele>90</ele>
        <time>2022-02-28T11:00:47Z</time>
      </trkpt>
      <trkpt lat="47.06603" lon="-0.38957">
        <ele>90</ele>
        <time>2022-02-28T11:00:51Z</time>
      </trkpt>
      <trkpt lat="47.06602" lon="-0.38975">
        <ele>90</ele>
        <time>2022-02-28T11:00:53Z</time>
      </trkpt>
      <trkpt lat="47.06607" lon="-0.39002">
        <ele>90</ele>
        <time>2022-02-28T11:00:57Z</time>
      </trkpt>
      <trkpt lat="47.06626" lon="-0.39063">
        <ele>89</ele>
        <time>2022-02-28T11:01:05Z</time>
      </trkpt>
      <trkpt lat="47.0663" lon="-0.39082">
        <ele>89</ele>
        <time>2022-02-28T11:01:07Z</time>
      </trkpt>
      <trkpt lat="47.06631" lon="-0.39101">
        <ele>89</ele>
        <time>2022-02-28T11:01:10Z</time>
      </trkpt>
      <trkpt lat="47.0662" lon="-0.39212">
        <ele>90</ele>
        <time>2022-02-28T11:01:23Z</time>
      </trkpt>
      <trkpt lat="47.06615" lon="-0.39311">
        <ele>90</ele>
        <time>2022-02-28T11:01:35Z</time>
      </trkpt>
      <trkpt lat="47.06616" lon="-0.39458">
        <ele>90</ele>
        <time>2022-02-28T11:01:53Z</time>
      </trkpt>
      <trkpt lat="47.06614" lon="-0.39485">
        <ele>90</ele>
        <time>2022-02-28T11:01:56Z</time>
      </trkpt>
      <trkpt lat="47.06604" lon="-0.39524">
        <ele>91</ele>
        <time>2022-02-28T11:02:01Z</time>
      </trkpt>
      <trkpt lat="47.06566" lon="-0.39601">
        <ele>91</ele>
        <time>2022-02-28T11:02:13Z</time>
      </trkpt>
      <trkpt lat="47.0654" lon="-0.39668">
        <ele>90</ele>
        <time>2022-02-28T11:02:22Z</time>
      </trkpt>
      <trkpt lat="47.06529" lon="-0.39708">
        <ele>90</ele>
        <time>2022-02-28T11:02:27Z</time>
      </trkpt>
      <trkpt lat="47.06508" lon="-0.39813">
        <ele>90</ele>
        <time>2022-02-28T11:02:41Z</time>
      </trkpt>
      <trkpt lat="47.06479" lon="-0.39903">
        <ele>91</ele>
        <time>2022-02-28T11:02:53Z</time>
      </trkpt>
      <trkpt lat="47.06465" lon="-0.39933">
        <ele>91</ele>
        <time>2022-02-28T11:02:57Z</time>
      </trkpt>
      <trkpt lat="47.06409" lon="-0.40032">
        <ele>90</ele>
        <time>2022-02-28T11:03:13Z</time>
      </trkpt>
      <trkpt lat="47.06394" lon="-0.40064">
        <ele>89</ele>
        <time>2022-02-28T11:03:17Z</time>
      </trkpt>
      <trkpt lat="47.06374" lon="-0.4012">
        <ele>90</ele>
        <time>2022-02-28T11:03:25Z</time>
      </trkpt>
      <trkpt lat="47.06348" lon="-0.40207">
        <ele>92</ele>
        <time>2022-02-28T11:03:37Z</time>
      </trkpt>
      <trkpt lat="47.06338" lon="-0.40231">
        <ele>92</ele>
        <time>2022-02-28T11:03:40Z</time>
      </trkpt>
      <trkpt lat="47.06321" lon="-0.40261">
        <ele>93</ele>
        <time>2022-02-28T11:03:45Z</time>
      </trkpt>
      <trkpt lat="47.06285" lon="-0.40312">
        <ele>93</ele>
        <time>2022-02-28T11:03:54Z</time>
      </trkpt>
      <trkpt lat="47.06253" lon="-0.40352">
        <ele>94</ele>
        <time>2022-02-28T11:04:01Z</time>
      </trkpt>
      <trkpt lat="47.06132" lon="-0.40486">
        <ele>93</ele>
        <time>2022-02-28T11:04:28Z</time>
      </trkpt>
      <trkpt lat="47.06092" lon="-0.40543">
        <ele>93</ele>
        <time>2022-02-28T11:04:38Z</time>
      </trkpt>
      <trkpt lat="47.06067" lon="-0.40592">
        <ele>94</ele>
        <time>2022-02-28T11:04:46Z</time>
      </trkpt>
      <trkpt lat="47.06047" lon="-0.40635">
        <ele>93</ele>
        <time>2022-02-28T11:04:52Z</time>
      </trkpt>
      <trkpt lat="47.06031" lon="-0.40676">
        <ele>93</ele>
        <time>2022-02-28T11:04:58Z</time>
      </trkpt>
      <trkpt lat="47.05981" lon="-0.40819">
        <ele>92</ele>
        <time>2022-02-28T11:05:17Z</time>
      </trkpt>
      <trkpt lat="47.05965" lon="-0.40859">
        <ele>92</ele>
        <time>2022-02-28T11:05:23Z</time>
      </trkpt>
      <trkpt lat="47.0588" lon="-0.40994">
        <ele>95</ele>
        <time>2022-02-28T11:05:45Z</time>
      </trkpt>
      <trkpt lat="47.05845" lon="-0.41103">
        <ele>94</ele>
        <time>2022-02-28T11:06:00Z</time>
      </trkpt>
      <trkpt lat="47.05822" lon="-0.41165">
        <ele>95</ele>
        <time>2022-02-28T11:06:08Z</time>
      </trkpt>
      <trkpt lat="47.05792" lon="-0.41233">
        <ele>96</ele>
        <time>2022-02-28T11:06:18Z</time>
      </trkpt>
      <trkpt lat="47.05744" lon="-0.41323">
        <ele>96</ele>
        <time>2022-02-28T11:06:32Z</time>
      </trkpt>
      <trkpt lat="47.05691" lon="-0.41413">
        <ele>98</ele>
        <time>2022-02-28T11:06:46Z</time>
      </trkpt>
      <trkpt lat="47.05673" lon="-0.41453">
        <ele>98</ele>
        <time>2022-02-28T11:06:52Z</time>
      </trkpt>
      <trkpt lat="47.05665" lon="-0.41489">
        <ele>97</ele>
        <time>2022-02-28T11:06:57Z</time>
      </trkpt>
      <trkpt lat="47.05646" lon="-0.41626">
        <ele>97</ele>
        <time>2022-02-28T11:07:14Z</time>
      </trkpt>
      <trkpt lat="47.05634" lon="-0.41751">
        <ele>98</ele>
        <time>2022-02-28T11:07:29Z</time>
      </trkpt>
      <trkpt lat="47.05633" lon="-0.41812">
        <ele>100</ele>
        <time>2022-02-28T11:07:36Z</time>
      </trkpt>
      <trkpt lat="47.05633" lon="-0.42009">
        <ele>103</ele>
        <time>2022-02-28T11:08:00Z</time>
      </trkpt>
      <trkpt lat="47.05631" lon="-0.42075">
        <ele>103</ele>
        <time>2022-02-28T11:08:08Z</time>
      </trkpt>
      <trkpt lat="47.05624" lon="-0.42119">
        <ele>103</ele>
        <time>2022-02-28T11:08:14Z</time>
      </trkpt>
      <trkpt lat="47.05587" lon="-0.42271">
        <ele>104</ele>
        <time>2022-02-28T11:08:33Z</time>
      </trkpt>
      <trkpt lat="47.05569" lon="-0.42313">
        <ele>104</ele>
        <time>2022-02-28T11:08:39Z</time>
      </trkpt>
      <trkpt lat="47.05551" lon="-0.42342">
        <ele>104</ele>
        <time>2022-02-28T11:08:44Z</time>
      </trkpt>
      <trkpt lat="47.05329" lon="-0.42579">
        <ele>106</ele>
        <time>2022-02-28T11:09:33Z</time>
      </trkpt>
      <trkpt lat="47.0531" lon="-0.42605">
        <ele>105</ele>
        <time>2022-02-28T11:09:37Z</time>
      </trkpt>
      <trkpt lat="47.05295" lon="-0.42632">
        <ele>105</ele>
        <time>2022-02-28T11:09:42Z</time>
      </trkpt>
      <trkpt lat="47.0528" lon="-0.4267">
        <ele>105</ele>
        <time>2022-02-28T11:09:47Z</time>
      </trkpt>
      <trkpt lat="47.0522" lon="-0.42645">
        <ele>104</ele>
        <time>2022-02-28T11:09:58Z</time>
      </trkpt>
      <trkpt lat="47.0516" lon="-0.42628">
        <ele>103</ele>
        <time>2022-02-28T11:10:09Z</time>
      </trkpt>
      <trkpt lat="47.05013" lon="-0.42611">
        <ele>104</ele>
        <time>2022-02-28T11:10:35Z</time>
      </trkpt>
      <trkpt lat="47.04972" lon="-0.42611">
        <ele>104</ele>
        <time>2022-02-28T11:10:42Z</time>
      </trkpt>
      <trkpt lat="47.04807" lon="-0.42632">
        <ele>106</ele>
        <time>2022-02-28T11:11:12Z</time>
      </trkpt>
      <trkpt lat="47.04773" lon="-0.42628">
        <ele>106</ele>
        <time>2022-02-28T11:11:18Z</time>
      </trkpt>
      <trkpt lat="47.0475" lon="-0.42629">
        <ele>107</ele>
        <time>2022-02-28T11:11:22Z</time>
      </trkpt>
      <trkpt lat="47.04725" lon="-0.42635">
        <ele>107</ele>
        <time>2022-02-28T11:11:27Z</time>
      </trkpt>
      <trkpt lat="47.04704" lon="-0.42643">
        <ele>108</ele>
        <time>2022-02-28T11:11:30Z</time>
      </trkpt>
      <trkpt lat="47.04608" lon="-0.42695">
        <ele>110</ele>
        <time>2022-02-28T11:11:49Z</time>
      </trkpt>
      <trkpt lat="47.04509" lon="-0.42738">
        <ele>113</ele>
        <time>2022-02-28T11:12:07Z</time>
      </trkpt>
      <trkpt lat="47.04415" lon="-0.42795">
        <ele>113</ele>
        <time>2022-02-28T11:12:25Z</time>
      </trkpt>
      <trkpt lat="47.04388" lon="-0.42807">
        <ele>112</ele>
        <time>2022-02-28T11:12:30Z</time>
      </trkpt>
      <trkpt lat="47.04353" lon="-0.42816">
        <ele>112</ele>
        <time>2022-02-28T11:12:36Z</time>
      </trkpt>
      <trkpt lat="47.04336" lon="-0.42824">
        <ele>112</ele>
        <time>2022-02-28T11:12:40Z</time>
      </trkpt>
      <trkpt lat="47.04292" lon="-0.42851">
        <ele>112</ele>
        <time>2022-02-28T11:12:48Z</time>
      </trkpt>
      <trkpt lat="47.04196" lon="-0.42921">
        <ele>112</ele>
        <time>2022-02-28T11:13:07Z</time>
      </trkpt>
      <trkpt lat="47.04053" lon="-0.43008">
        <ele>111</ele>
        <time>2022-02-28T11:13:35Z</time>
      </trkpt>
      <trkpt lat="47.04004" lon="-0.43032">
        <ele>111</ele>
        <time>2022-02-28T11:13:44Z</time>
      </trkpt>
      <trkpt lat="47.03822" lon="-0.43115">
        <ele>114</ele>
        <time>2022-02-28T11:14:18Z</time>
      </trkpt>
      <trkpt lat="47.03733" lon="-0.43152">
        <ele>114</ele>
        <time>2022-02-28T11:14:34Z</time>
      </trkpt>
      <trkpt lat="47.03613" lon="-0.43189">
        <ele>114</ele>
        <time>2022-02-28T11:14:56Z</time>
      </trkpt>
      <trkpt lat="47.03505" lon="-0.43227">
        <ele>115</ele>
        <time>2022-02-28T11:15:16Z</time>
      </trkpt>
      <trkpt lat="47.03449" lon="-0.43253">
        <ele>116</ele>
        <time>2022-02-28T11:15:26Z</time>
      </trkpt>
      <trkpt lat="47.03368" lon="-0.43285">
        <ele>117</ele>
        <time>2022-02-28T11:15:41Z</time>
      </trkpt>
      <trkpt lat="47.03315" lon="-0.43303">
        <ele>118</ele>
        <time>2022-02-28T11:15:51Z</time>
      </trkpt>
      <trkpt lat="47.03266" lon="-0.43329">
        <ele>118</ele>
        <time>2022-02-28T11:16:00Z</time>
      </trkpt>
      <trkpt lat="47.03208" lon="-0.43352">
        <ele>118</ele>
        <time>2022-02-28T11:16:11Z</time>
      </trkpt>
      <trkpt lat="47.03143" lon="-0.43382">
        <ele>119</ele>
        <time>2022-02-28T11:16:23Z</time>
      </trkpt>
      <trkpt lat="47.03119" lon="-0.43397">
        <ele>120</ele>
        <time>2022-02-28T11:16:28Z</time>
      </trkpt>
      <trkpt lat="47.03083" lon="-0.43433">
        <ele>121</ele>
        <time>2022-02-28T11:16:35Z</time>
      </trkpt>
      <trkpt lat="47.03062" lon="-0.43449">
        <ele>121</ele>
        <time>2022-02-28T11:16:40Z</time>
      </trkpt>
      <trkpt lat="47.02823" lon="-0.43577">
        <ele>118</ele>
        <time>2022-02-28T11:17:25Z</time>
      </trkpt>
      <trkpt lat="47.02802" lon="-0.43591">
        <ele>118</ele>
        <time>2022-02-28T11:17:29Z</time>
      </trkpt>
      <trkpt lat="47.02776" lon="-0.43617">
        <ele>118</ele>
        <time>2022-02-28T11:17:35Z</time>
      </trkpt>
      <trkpt lat="47.02748" lon="-0.4364">
        <ele>118</ele>
        <time>2022-02-28T11:17:40Z</time>
      </trkpt>
      <trkpt lat="47.02563" lon="-0.43758">
        <ele>118</ele>
        <time>2022-02-28T11:18:16Z</time>
      </trkpt>
      <trkpt lat="47.02387" lon="-0.43837">
        <ele>117</ele>
        <time>2022-02-28T11:18:49Z</time>
      </trkpt>
      <trkpt lat="47.02274" lon="-0.43891">
        <ele>118</ele>
        <time>2022-02-28T11:19:10Z</time>
      </trkpt>
      <trkpt lat="47.02116" lon="-0.43989">
        <ele>120</ele>
        <time>2022-02-28T11:19:41Z</time>
      </trkpt>
      <trkpt lat="47.02091" lon="-0.44002">
        <ele>121</ele>
        <time>2022-02-28T11:19:45Z</time>
      </trkpt>
      <trkpt lat="47.02071" lon="-0.44008">
        <ele>121</ele>
        <time>2022-02-28T11:19:49Z</time>
      </trkpt>
      <trkpt lat="47.01999" lon="-0.44019">
        <ele>121</ele>
        <time>2022-02-28T11:20:02Z</time>
      </trkpt>
      <trkpt lat="47.01979" lon="-0.44028">
        <ele>121</ele>
        <time>2022-02-28T11:20:06Z</time>
      </trkpt>
      <trkpt lat="47.01942" lon="-0.4406">
        <ele>122</ele>
        <time>2022-02-28T11:20:13Z</time>
      </trkpt>
      <trkpt lat="47.01912" lon="-0.44077">
        <ele>122</ele>
        <time>2022-02-28T11:20:19Z</time>
      </trkpt>
      <trkpt lat="47.01746" lon="-0.44151">
        <ele>126</ele>
        <time>2022-02-28T11:20:50Z</time>
      </trkpt>
      <trkpt lat="47.0172" lon="-0.4416">
        <ele>126</ele>
        <time>2022-02-28T11:20:55Z</time>
      </trkpt>
      <trkpt lat="47.01694" lon="-0.44162">
        <ele>126</ele>
        <time>2022-02-28T11:20:59Z</time>
      </trkpt>
      <trkpt lat="47.01634" lon="-0.4415">
        <ele>124</ele>
        <time>2022-02-28T11:21:10Z</time>
      </trkpt>
      <trkpt lat="47.01492" lon="-0.44101">
        <ele>121</ele>
        <time>2022-02-28T11:21:36Z</time>
      </trkpt>
      <trkpt lat="47.01312" lon="-0.44022">
        <ele>123</ele>
        <time>2022-02-28T11:22:09Z</time>
      </trkpt>
      <trkpt lat="47.0128" lon="-0.44013">
        <ele>123</ele>
        <time>2022-02-28T11:22:15Z</time>
      </trkpt>
      <trkpt lat="47.01253" lon="-0.4401">
        <ele>122</ele>
        <time>2022-02-28T11:22:20Z</time>
      </trkpt>
      <trkpt lat="47.0114" lon="-0.44014">
        <ele>123</ele>
        <time>2022-02-28T11:22:40Z</time>
      </trkpt>
      <trkpt lat="47.01051" lon="-0.44014">
        <ele>124</ele>
        <time>2022-02-28T11:22:56Z</time>
      </trkpt>
      <trkpt lat="47.00971" lon="-0.44006">
        <ele>126</ele>
        <time>2022-02-28T11:23:10Z</time>
      </trkpt>
      <trkpt lat="47.00942" lon="-0.44009">
        <ele>126</ele>
        <time>2022-02-28T11:23:15Z</time>
      </trkpt>
      <trkpt lat="47.00867" lon="-0.44022">
        <ele>126</ele>
        <time>2022-02-28T11:23:29Z</time>
      </trkpt>
      <trkpt lat="47.00781" lon="-0.44022">
        <ele>125</ele>
        <time>2022-02-28T11:23:44Z</time>
      </trkpt>
      <trkpt lat="47.0075" lon="-0.44025">
        <ele>125</ele>
        <time>2022-02-28T11:23:50Z</time>
      </trkpt>
      <trkpt lat="47.0058" lon="-0.44065">
        <ele>128</ele>
        <time>2022-02-28T11:24:20Z</time>
      </trkpt>
      <trkpt lat="47.00485" lon="-0.44083">
        <ele>128</ele>
        <time>2022-02-28T11:24:37Z</time>
      </trkpt>
      <trkpt lat="47.00433" lon="-0.44098">
        <ele>129</ele>
        <time>2022-02-28T11:24:47Z</time>
      </trkpt>
      <trkpt lat="47.0027" lon="-0.44162">
        <ele>136</ele>
        <time>2022-02-28T11:25:17Z</time>
      </trkpt>
      <trkpt lat="47.00144" lon="-0.44206">
        <ele>140</ele>
        <time>2022-02-28T11:25:40Z</time>
      </trkpt>
      <trkpt lat="47.00117" lon="-0.44212">
        <ele>140</ele>
        <time>2022-02-28T11:25:45Z</time>
      </trkpt>
      <trkpt lat="47.00083" lon="-0.44208">
        <ele>142</ele>
        <time>2022-02-28T11:25:51Z</time>
      </trkpt>
      <trkpt lat="46.99953" lon="-0.44152">
        <ele>143</ele>
        <time>2022-02-28T11:26:15Z</time>
      </trkpt>
      <trkpt lat="46.9992" lon="-0.44125">
        <ele>143</ele>
        <time>2022-02-28T11:26:22Z</time>
      </trkpt>
      <trkpt lat="46.99904" lon="-0.44105">
        <ele>142</ele>
        <time>2022-02-28T11:26:25Z</time>
      </trkpt>
      <trkpt lat="46.99866" lon="-0.44036">
        <ele>142</ele>
        <time>2022-02-28T11:26:36Z</time>
      </trkpt>
      <trkpt lat="46.99844" lon="-0.44004">
        <ele>141</ele>
        <time>2022-02-28T11:26:42Z</time>
      </trkpt>
      <trkpt lat="46.99735" lon="-0.43882">
        <ele>138</ele>
        <time>2022-02-28T11:27:06Z</time>
      </trkpt>
      <trkpt lat="46.99691" lon="-0.43837">
        <ele>138</ele>
        <time>2022-02-28T11:27:16Z</time>
      </trkpt>
      <trkpt lat="46.99653" lon="-0.43803">
        <ele>137</ele>
        <time>2022-02-28T11:27:23Z</time>
      </trkpt>
      <trkpt lat="46.996" lon="-0.43762">
        <ele>136</ele>
        <time>2022-02-28T11:27:34Z</time>
      </trkpt>
      <trkpt lat="46.99583" lon="-0.43746">
        <ele>136</ele>
        <time>2022-02-28T11:27:38Z</time>
      </trkpt>
      <trkpt lat="46.99568" lon="-0.43726">
        <ele>134</ele>
        <time>2022-02-28T11:27:41Z</time>
      </trkpt>
      <trkpt lat="46.99551" lon="-0.43696">
        <ele>133</ele>
        <time>2022-02-28T11:27:46Z</time>
      </trkpt>
      <trkpt lat="46.99503" lon="-0.43589">
        <ele>128</ele>
        <time>2022-02-28T11:28:02Z</time>
      </trkpt>
      <trkpt lat="46.99475" lon="-0.43532">
        <ele>125</ele>
        <time>2022-02-28T11:28:10Z</time>
      </trkpt>
      <trkpt lat="46.99452" lon="-0.43498">
        <ele>123</ele>
        <time>2022-02-28T11:28:16Z</time>
      </trkpt>
      <trkpt lat="46.99413" lon="-0.43442">
        <ele>122</ele>
        <time>2022-02-28T11:28:26Z</time>
      </trkpt>
      <trkpt lat="46.99379" lon="-0.4338">
        <ele>121</ele>
        <time>2022-02-28T11:28:35Z</time>
      </trkpt>
      <trkpt lat="46.99349" lon="-0.43315">
        <ele>120</ele>
        <time>2022-02-28T11:28:45Z</time>
      </trkpt>
      <trkpt lat="46.99346" lon="-0.43307">
        <ele>120</ele>
        <time>2022-02-28T11:28:46Z</time>
      </trkpt>
      <trkpt lat="46.99134" lon="-0.43406">
        <ele>125</ele>
        <time>2022-02-28T11:29:26Z</time>
      </trkpt>
      <trkpt lat="46.99112" lon="-0.4342">
        <ele>126</ele>
        <time>2022-02-28T11:29:30Z</time>
      </trkpt>
      <trkpt lat="46.99092" lon="-0.43443">
        <ele>126</ele>
        <time>2022-02-28T11:29:34Z</time>
      </trkpt>
      <trkpt lat="46.99031" lon="-0.43537">
        <ele>123</ele>
        <time>2022-02-28T11:29:50Z</time>
      </trkpt>
      <trkpt lat="46.99008" lon="-0.43575">
        <ele>121</ele>
        <time>2022-02-28T11:29:56Z</time>
      </trkpt>
      <trkpt lat="46.98992" lon="-0.43624">
        <ele>120</ele>
        <time>2022-02-28T11:30:03Z</time>
      </trkpt>
      <trkpt lat="46.98964" lon="-0.43732">
        <ele>116</ele>
        <time>2022-02-28T11:30:17Z</time>
      </trkpt>
      <trkpt lat="46.98932" lon="-0.44011">
        <ele>101</ele>
        <time>2022-02-28T11:30:51Z</time>
      </trkpt>
      <trkpt lat="46.98932" lon="-0.44038">
        <ele>102</ele>
        <time>2022-02-28T11:30:54Z</time>
      </trkpt>
      <trkpt lat="46.98908" lon="-0.44041">
        <ele>100</ele>
        <time>2022-02-28T11:30:59Z</time>
      </trkpt>
      <trkpt lat="46.98744" lon="-0.44114">
        <ele>93</ele>
        <time>2022-02-28T11:31:29Z</time>
      </trkpt>
      <trkpt lat="46.98724" lon="-0.44128">
        <ele>92</ele>
        <time>2022-02-28T11:31:33Z</time>
      </trkpt>
      <trkpt lat="46.98714" lon="-0.44141">
        <ele>90</ele>
        <time>2022-02-28T11:31:36Z</time>
      </trkpt>
      <trkpt lat="46.98707" lon="-0.44153">
        <ele>89</ele>
        <time>2022-02-28T11:31:37Z</time>
      </trkpt>
      <trkpt lat="46.98702" lon="-0.44171">
        <ele>89</ele>
        <time>2022-02-28T11:31:40Z</time>
      </trkpt>
      <trkpt lat="46.9869" lon="-0.44215">
        <ele>87</ele>
        <time>2022-02-28T11:31:46Z</time>
      </trkpt>
      <trkpt lat="46.98681" lon="-0.44257">
        <ele>88</ele>
        <time>2022-02-28T11:31:51Z</time>
      </trkpt>
      <trkpt lat="46.9868" lon="-0.44286">
        <ele>90</ele>
        <time>2022-02-28T11:31:54Z</time>
      </trkpt>
      <trkpt lat="46.98686" lon="-0.4433">
        <ele>93</ele>
        <time>2022-02-28T11:32:00Z</time>
      </trkpt>
      <trkpt lat="46.98685" lon="-0.44344">
        <ele>94</ele>
        <time>2022-02-28T11:32:02Z</time>
      </trkpt>
      <trkpt lat="46.98682" lon="-0.44358">
        <ele>94</ele>
        <time>2022-02-28T11:32:03Z</time>
      </trkpt>
      <trkpt lat="46.98678" lon="-0.4437">
        <ele>95</ele>
        <time>2022-02-28T11:32:05Z</time>
      </trkpt>
      <trkpt lat="46.98663" lon="-0.44401">
        <ele>96</ele>
        <time>2022-02-28T11:32:10Z</time>
      </trkpt>
      <trkpt lat="46.98639" lon="-0.44456">
        <ele>100</ele>
        <time>2022-02-28T11:32:18Z</time>
      </trkpt>
      <trkpt lat="46.98627" lon="-0.44509">
        <ele>101</ele>
        <time>2022-02-28T11:32:24Z</time>
      </trkpt>
      <trkpt lat="46.98617" lon="-0.4454">
        <ele>102</ele>
        <time>2022-02-28T11:32:28Z</time>
      </trkpt>
      <trkpt lat="46.98603" lon="-0.44573">
        <ele>104</ele>
        <time>2022-02-28T11:32:33Z</time>
      </trkpt>
      <trkpt lat="46.98578" lon="-0.44623">
        <ele>105</ele>
        <time>2022-02-28T11:32:41Z</time>
      </trkpt>
      <trkpt lat="46.98563" lon="-0.4466">
        <ele>105</ele>
        <time>2022-02-28T11:32:46Z</time>
      </trkpt>
      <trkpt lat="46.98554" lon="-0.44689">
        <ele>106</ele>
        <time>2022-02-28T11:32:50Z</time>
      </trkpt>
      <trkpt lat="46.98548" lon="-0.4472">
        <ele>107</ele>
        <time>2022-02-28T11:32:54Z</time>
      </trkpt>
      <trkpt lat="46.98543" lon="-0.44755">
        <ele>108</ele>
        <time>2022-02-28T11:32:58Z</time>
      </trkpt>
      <trkpt lat="46.98542" lon="-0.44776">
        <ele>108</ele>
        <time>2022-02-28T11:33:01Z</time>
      </trkpt>
      <trkpt lat="46.98548" lon="-0.44869">
        <ele>108</ele>
        <time>2022-02-28T11:33:12Z</time>
      </trkpt>
      <trkpt lat="46.98547" lon="-0.44892">
        <ele>110</ele>
        <time>2022-02-28T11:33:15Z</time>
      </trkpt>
      <trkpt lat="46.98545" lon="-0.44901">
        <ele>111</ele>
        <time>2022-02-28T11:33:16Z</time>
      </trkpt>
      <trkpt lat="46.98523" lon="-0.44953">
        <ele>115</ele>
        <time>2022-02-28T11:33:23Z</time>
      </trkpt>
      <trkpt lat="46.98529" lon="-0.44961">
        <ele>115</ele>
        <time>2022-02-28T11:33:25Z</time>
      </trkpt>
      <trkpt lat="46.9853" lon="-0.44966">
        <ele>115</ele>
        <time>2022-02-28T11:33:25Z</time>
      </trkpt>
      <trkpt lat="46.98541" lon="-0.44967">
        <ele>114</ele>
        <time>2022-02-28T11:33:27Z</time>
      </trkpt>
      <trkpt lat="46.98547" lon="-0.4497">
        <ele>114</ele>
        <time>2022-02-28T11:33:29Z</time>
      </trkpt>
      <trkpt lat="46.98579" lon="-0.45007">
        <ele>115</ele>
        <time>2022-02-28T11:33:36Z</time>
      </trkpt>
      <trkpt lat="46.98547" lon="-0.4497">
        <ele>114</ele>
        <time>2022-02-28T11:33:43Z</time>
      </trkpt>
      <trkpt lat="46.98541" lon="-0.44967">
        <ele>114</ele>
        <time>2022-02-28T11:33:44Z</time>
      </trkpt>
      <trkpt lat="46.9853" lon="-0.44966">
        <ele>115</ele>
        <time>2022-02-28T11:33:46Z</time>
      </trkpt>
      <trkpt lat="46.98529" lon="-0.44976">
        <ele>115</ele>
        <time>2022-02-28T11:33:47Z</time>
      </trkpt>
      <trkpt lat="46.98525" lon="-0.44983">
        <ele>115</ele>
        <time>2022-02-28T11:33:48Z</time>
      </trkpt>
      <trkpt lat="46.98518" lon="-0.44986">
        <ele>116</ele>
        <time>2022-02-28T11:33:50Z</time>
      </trkpt>
      <trkpt lat="46.98511" lon="-0.44983">
        <ele>116</ele>
        <time>2022-02-28T11:33:51Z</time>
      </trkpt>
      <trkpt lat="46.98507" lon="-0.44974">
        <ele>116</ele>
        <time>2022-02-28T11:33:52Z</time>
      </trkpt>
      <trkpt lat="46.98495" lon="-0.44986">
        <ele>116</ele>
        <time>2022-02-28T11:33:55Z</time>
      </trkpt>
    </trkseg>
  </trk>
</gpx>